<?xml version="1.0" encoding="UTF-8" standalone="no" ?>
<gpx xmlns="http://www.topografix.com/GPX/1/1" xmlns:xsi="http://www.w3.org/2001/XMLSchema-instance" xsi:schemaLocation="http://www.topografix.com/GPX/1/1 http://www.topografix.com/GPX/1/1/gpx.xsd" version="1.1" creator="VisuGPX - https://www.visugpx.com">
  <metadata>
    <name>CAP Planfoy X du Treve</name>
  </metadata>
  <trk>
    <name><![CDATA[CAP Planfoy X du Treve_1]]></name>
    <trkseg>
      <trkpt lat="45.3823" lon="4.43998">
        <ele>961.4</ele>
        <time>2021-06-16T08:19:20Z</time>
      </trkpt>
      <trkpt lat="45.38229" lon="4.43997">
        <ele>961.4</ele>
        <time>2021-06-16T08:19:21Z</time>
      </trkpt>
      <trkpt lat="45.38228" lon="4.43995">
        <ele>961</ele>
        <time>2021-06-16T08:19:22Z</time>
      </trkpt>
      <trkpt lat="45.38228" lon="4.43987">
        <ele>960.8</ele>
        <time>2021-06-16T08:19:25Z</time>
      </trkpt>
      <trkpt lat="45.38223" lon="4.43981">
        <ele>961</ele>
        <time>2021-06-16T08:19:30Z</time>
      </trkpt>
      <trkpt lat="45.3822" lon="4.4398">
        <ele>961</ele>
        <time>2021-06-16T08:19:32Z</time>
      </trkpt>
      <trkpt lat="45.38219" lon="4.43979">
        <ele>961</ele>
        <time>2021-06-16T08:19:33Z</time>
      </trkpt>
      <trkpt lat="45.38217" lon="4.43979">
        <ele>961</ele>
        <time>2021-06-16T08:19:34Z</time>
      </trkpt>
      <trkpt lat="45.38214" lon="4.43978">
        <ele>960.8</ele>
        <time>2021-06-16T08:19:35Z</time>
      </trkpt>
      <trkpt lat="45.38211" lon="4.43978">
        <ele>960.6</ele>
        <time>2021-06-16T08:19:37Z</time>
      </trkpt>
      <trkpt lat="45.38209" lon="4.43978">
        <ele>960.4</ele>
        <time>2021-06-16T08:19:38Z</time>
      </trkpt>
      <trkpt lat="45.38208" lon="4.43977">
        <ele>960.4</ele>
        <time>2021-06-16T08:19:39Z</time>
      </trkpt>
      <trkpt lat="45.38202" lon="4.43973">
        <ele>960.2</ele>
        <time>2021-06-16T08:19:44Z</time>
      </trkpt>
      <trkpt lat="45.382" lon="4.43971">
        <ele>960.2</ele>
        <time>2021-06-16T08:19:45Z</time>
      </trkpt>
      <trkpt lat="45.38198" lon="4.43968">
        <ele>960.2</ele>
        <time>2021-06-16T08:19:46Z</time>
      </trkpt>
      <trkpt lat="45.38193" lon="4.43963">
        <ele>960.2</ele>
        <time>2021-06-16T08:19:48Z</time>
      </trkpt>
      <trkpt lat="45.3819" lon="4.43961">
        <ele>960</ele>
        <time>2021-06-16T08:19:49Z</time>
      </trkpt>
      <trkpt lat="45.38186" lon="4.43956">
        <ele>959.6</ele>
        <time>2021-06-16T08:19:51Z</time>
      </trkpt>
      <trkpt lat="45.38182" lon="4.43953">
        <ele>959.2</ele>
        <time>2021-06-16T08:19:53Z</time>
      </trkpt>
      <trkpt lat="45.38174" lon="4.43946">
        <ele>958.6</ele>
        <time>2021-06-16T08:19:57Z</time>
      </trkpt>
      <trkpt lat="45.38168" lon="4.43941">
        <ele>958.4</ele>
        <time>2021-06-16T08:20:00Z</time>
      </trkpt>
      <trkpt lat="45.38163" lon="4.43938">
        <ele>958.2</ele>
        <time>2021-06-16T08:20:02Z</time>
      </trkpt>
      <trkpt lat="45.38152" lon="4.43926">
        <ele>957.6</ele>
        <time>2021-06-16T08:20:06Z</time>
      </trkpt>
      <trkpt lat="45.3814" lon="4.43916">
        <ele>957.2</ele>
        <time>2021-06-16T08:20:11Z</time>
      </trkpt>
      <trkpt lat="45.38125" lon="4.43907">
        <ele>956.6</ele>
        <time>2021-06-16T08:20:18Z</time>
      </trkpt>
      <trkpt lat="45.38124" lon="4.43906">
        <ele>956.4</ele>
        <time>2021-06-16T08:20:19Z</time>
      </trkpt>
      <trkpt lat="45.38119" lon="4.43905">
        <ele>956</ele>
        <time>2021-06-16T08:20:22Z</time>
      </trkpt>
      <trkpt lat="45.38115" lon="4.43905">
        <ele>955.6</ele>
        <time>2021-06-16T08:20:24Z</time>
      </trkpt>
      <trkpt lat="45.38109" lon="4.43905">
        <ele>955</ele>
        <time>2021-06-16T08:20:27Z</time>
      </trkpt>
      <trkpt lat="45.38107" lon="4.43904">
        <ele>955</ele>
        <time>2021-06-16T08:20:28Z</time>
      </trkpt>
      <trkpt lat="45.38105" lon="4.43903">
        <ele>955</ele>
        <time>2021-06-16T08:20:29Z</time>
      </trkpt>
      <trkpt lat="45.38102" lon="4.43901">
        <ele>954.8</ele>
        <time>2021-06-16T08:20:30Z</time>
      </trkpt>
      <trkpt lat="45.38096" lon="4.43899">
        <ele>954.8</ele>
        <time>2021-06-16T08:20:32Z</time>
      </trkpt>
      <trkpt lat="45.38086" lon="4.43895">
        <ele>954.8</ele>
        <time>2021-06-16T08:20:36Z</time>
      </trkpt>
      <trkpt lat="45.38084" lon="4.43894">
        <ele>954.6</ele>
        <time>2021-06-16T08:20:37Z</time>
      </trkpt>
      <trkpt lat="45.38079" lon="4.43891">
        <ele>954.6</ele>
        <time>2021-06-16T08:20:39Z</time>
      </trkpt>
      <trkpt lat="45.38077" lon="4.4389">
        <ele>954.6</ele>
        <time>2021-06-16T08:20:40Z</time>
      </trkpt>
      <trkpt lat="45.38074" lon="4.43889">
        <ele>954.6</ele>
        <time>2021-06-16T08:20:41Z</time>
      </trkpt>
      <trkpt lat="45.3807" lon="4.43887">
        <ele>954.4</ele>
        <time>2021-06-16T08:20:43Z</time>
      </trkpt>
      <trkpt lat="45.38069" lon="4.43882">
        <ele>954.2</ele>
        <time>2021-06-16T08:20:45Z</time>
      </trkpt>
      <trkpt lat="45.38075" lon="4.43883">
        <ele>954</ele>
        <time>2021-06-16T08:20:48Z</time>
      </trkpt>
      <trkpt lat="45.38078" lon="4.43883">
        <ele>953.8</ele>
        <time>2021-06-16T08:20:49Z</time>
      </trkpt>
      <trkpt lat="45.38088" lon="4.43884">
        <ele>952.8</ele>
        <time>2021-06-16T08:20:53Z</time>
      </trkpt>
      <trkpt lat="45.38095" lon="4.43884">
        <ele>952.2</ele>
        <time>2021-06-16T08:20:56Z</time>
      </trkpt>
      <trkpt lat="45.38102" lon="4.43886">
        <ele>951.8</ele>
        <time>2021-06-16T08:20:59Z</time>
      </trkpt>
      <trkpt lat="45.38117" lon="4.43888">
        <ele>951.2</ele>
        <time>2021-06-16T08:21:05Z</time>
      </trkpt>
      <trkpt lat="45.38126" lon="4.43886">
        <ele>950.6</ele>
        <time>2021-06-16T08:21:09Z</time>
      </trkpt>
      <trkpt lat="45.38144" lon="4.43886">
        <ele>949.6</ele>
        <time>2021-06-16T08:21:17Z</time>
      </trkpt>
      <trkpt lat="45.38162" lon="4.43893">
        <ele>948.8</ele>
        <time>2021-06-16T08:21:23Z</time>
      </trkpt>
      <trkpt lat="45.38167" lon="4.43894">
        <ele>948.2</ele>
        <time>2021-06-16T08:21:25Z</time>
      </trkpt>
      <trkpt lat="45.3818" lon="4.43899">
        <ele>947.2</ele>
        <time>2021-06-16T08:21:32Z</time>
      </trkpt>
      <trkpt lat="45.38189" lon="4.43903">
        <ele>946.6</ele>
        <time>2021-06-16T08:21:36Z</time>
      </trkpt>
      <trkpt lat="45.38194" lon="4.43904">
        <ele>946.2</ele>
        <time>2021-06-16T08:21:38Z</time>
      </trkpt>
      <trkpt lat="45.38213" lon="4.43901">
        <ele>945.4</ele>
        <time>2021-06-16T08:21:45Z</time>
      </trkpt>
      <trkpt lat="45.38221" lon="4.43899">
        <ele>945.2</ele>
        <time>2021-06-16T08:21:48Z</time>
      </trkpt>
      <trkpt lat="45.38236" lon="4.4389">
        <ele>944</ele>
        <time>2021-06-16T08:21:55Z</time>
      </trkpt>
      <trkpt lat="45.38253" lon="4.43886">
        <ele>943.2</ele>
        <time>2021-06-16T08:22:02Z</time>
      </trkpt>
      <trkpt lat="45.38256" lon="4.43886">
        <ele>942.8</ele>
        <time>2021-06-16T08:22:03Z</time>
      </trkpt>
      <trkpt lat="45.38265" lon="4.43884">
        <ele>942</ele>
        <time>2021-06-16T08:22:08Z</time>
      </trkpt>
      <trkpt lat="45.38267" lon="4.43883">
        <ele>941.8</ele>
        <time>2021-06-16T08:22:09Z</time>
      </trkpt>
      <trkpt lat="45.38277" lon="4.43875">
        <ele>941.2</ele>
        <time>2021-06-16T08:22:14Z</time>
      </trkpt>
      <trkpt lat="45.38282" lon="4.43872">
        <ele>940.8</ele>
        <time>2021-06-16T08:22:16Z</time>
      </trkpt>
      <trkpt lat="45.38284" lon="4.4387">
        <ele>940.6</ele>
        <time>2021-06-16T08:22:17Z</time>
      </trkpt>
      <trkpt lat="45.38287" lon="4.43868">
        <ele>940.6</ele>
        <time>2021-06-16T08:22:18Z</time>
      </trkpt>
      <trkpt lat="45.38289" lon="4.43867">
        <ele>940.4</ele>
        <time>2021-06-16T08:22:19Z</time>
      </trkpt>
      <trkpt lat="45.38291" lon="4.43865">
        <ele>940.4</ele>
        <time>2021-06-16T08:22:20Z</time>
      </trkpt>
      <trkpt lat="45.38293" lon="4.43863">
        <ele>940.4</ele>
        <time>2021-06-16T08:22:21Z</time>
      </trkpt>
      <trkpt lat="45.383" lon="4.43857">
        <ele>939.8</ele>
        <time>2021-06-16T08:22:24Z</time>
      </trkpt>
      <trkpt lat="45.383" lon="4.43854">
        <ele>939.6</ele>
        <time>2021-06-16T08:22:25Z</time>
      </trkpt>
      <trkpt lat="45.38296" lon="4.43847">
        <ele>939.2</ele>
        <time>2021-06-16T08:22:27Z</time>
      </trkpt>
      <trkpt lat="45.38291" lon="4.43845">
        <ele>938.4</ele>
        <time>2021-06-16T08:22:29Z</time>
      </trkpt>
      <trkpt lat="45.38286" lon="4.43847">
        <ele>938</ele>
        <time>2021-06-16T08:22:31Z</time>
      </trkpt>
      <trkpt lat="45.38279" lon="4.43848">
        <ele>937.4</ele>
        <time>2021-06-16T08:22:34Z</time>
      </trkpt>
      <trkpt lat="45.3826" lon="4.4385">
        <ele>936.6</ele>
        <time>2021-06-16T08:22:43Z</time>
      </trkpt>
      <trkpt lat="45.38254" lon="4.43855">
        <ele>936.4</ele>
        <time>2021-06-16T08:22:46Z</time>
      </trkpt>
      <trkpt lat="45.38237" lon="4.43851">
        <ele>935.8</ele>
        <time>2021-06-16T08:22:54Z</time>
      </trkpt>
      <trkpt lat="45.38222" lon="4.43849">
        <ele>935.4</ele>
        <time>2021-06-16T08:23:01Z</time>
      </trkpt>
      <trkpt lat="45.38219" lon="4.43848">
        <ele>935.2</ele>
        <time>2021-06-16T08:23:03Z</time>
      </trkpt>
      <trkpt lat="45.38217" lon="4.43848">
        <ele>935</ele>
        <time>2021-06-16T08:23:04Z</time>
      </trkpt>
      <trkpt lat="45.38215" lon="4.43848">
        <ele>935</ele>
        <time>2021-06-16T08:23:05Z</time>
      </trkpt>
      <trkpt lat="45.38208" lon="4.43842">
        <ele>934.4</ele>
        <time>2021-06-16T08:23:09Z</time>
      </trkpt>
      <trkpt lat="45.38206" lon="4.43843">
        <ele>934.2</ele>
        <time>2021-06-16T08:23:10Z</time>
      </trkpt>
      <trkpt lat="45.38204" lon="4.43842">
        <ele>934.2</ele>
        <time>2021-06-16T08:23:11Z</time>
      </trkpt>
      <trkpt lat="45.38186" lon="4.43833">
        <ele>933.6</ele>
        <time>2021-06-16T08:23:19Z</time>
      </trkpt>
      <trkpt lat="45.38183" lon="4.43835">
        <ele>933.4</ele>
        <time>2021-06-16T08:23:20Z</time>
      </trkpt>
      <trkpt lat="45.38176" lon="4.4383">
        <ele>933.2</ele>
        <time>2021-06-16T08:23:24Z</time>
      </trkpt>
      <trkpt lat="45.38168" lon="4.43823">
        <ele>932.8</ele>
        <time>2021-06-16T08:23:28Z</time>
      </trkpt>
      <trkpt lat="45.38157" lon="4.43817">
        <ele>932.4</ele>
        <time>2021-06-16T08:23:34Z</time>
      </trkpt>
      <trkpt lat="45.38151" lon="4.43816">
        <ele>932.2</ele>
        <time>2021-06-16T08:23:37Z</time>
      </trkpt>
      <trkpt lat="45.38138" lon="4.43813">
        <ele>931.2</ele>
        <time>2021-06-16T08:23:44Z</time>
      </trkpt>
      <trkpt lat="45.3813" lon="4.43815">
        <ele>931.2</ele>
        <time>2021-06-16T08:23:47Z</time>
      </trkpt>
      <trkpt lat="45.38111" lon="4.43812">
        <ele>931</ele>
        <time>2021-06-16T08:23:56Z</time>
      </trkpt>
      <trkpt lat="45.38099" lon="4.43792">
        <ele>931.2</ele>
        <time>2021-06-16T08:24:06Z</time>
      </trkpt>
      <trkpt lat="45.38109" lon="4.43769">
        <ele>931.2</ele>
        <time>2021-06-16T08:24:15Z</time>
      </trkpt>
      <trkpt lat="45.38124" lon="4.43763">
        <ele>931.8</ele>
        <time>2021-06-16T08:24:25Z</time>
      </trkpt>
      <trkpt lat="45.38128" lon="4.43761">
        <ele>932</ele>
        <time>2021-06-16T08:24:27Z</time>
      </trkpt>
      <trkpt lat="45.3813" lon="4.43761">
        <ele>932.2</ele>
        <time>2021-06-16T08:24:28Z</time>
      </trkpt>
      <trkpt lat="45.38133" lon="4.43758">
        <ele>932.6</ele>
        <time>2021-06-16T08:24:30Z</time>
      </trkpt>
      <trkpt lat="45.3815" lon="4.43748">
        <ele>933</ele>
        <time>2021-06-16T08:24:39Z</time>
      </trkpt>
      <trkpt lat="45.38158" lon="4.4374">
        <ele>933.4</ele>
        <time>2021-06-16T08:24:44Z</time>
      </trkpt>
      <trkpt lat="45.38174" lon="4.43726">
        <ele>933.6</ele>
        <time>2021-06-16T08:24:54Z</time>
      </trkpt>
      <trkpt lat="45.38192" lon="4.43715">
        <ele>934.6</ele>
        <time>2021-06-16T08:25:07Z</time>
      </trkpt>
      <trkpt lat="45.38195" lon="4.43713">
        <ele>934.8</ele>
        <time>2021-06-16T08:25:09Z</time>
      </trkpt>
      <trkpt lat="45.38208" lon="4.43705">
        <ele>935.6</ele>
        <time>2021-06-16T08:25:17Z</time>
      </trkpt>
      <trkpt lat="45.38227" lon="4.43697">
        <ele>936.2</ele>
        <time>2021-06-16T08:25:30Z</time>
      </trkpt>
      <trkpt lat="45.38246" lon="4.43689">
        <ele>936.6</ele>
        <time>2021-06-16T08:25:36Z</time>
      </trkpt>
      <trkpt lat="45.38257" lon="4.43678">
        <ele>937.2</ele>
        <time>2021-06-16T08:25:43Z</time>
      </trkpt>
      <trkpt lat="45.38265" lon="4.4367">
        <ele>937.6</ele>
        <time>2021-06-16T08:25:49Z</time>
      </trkpt>
      <trkpt lat="45.38275" lon="4.4366">
        <ele>938.4</ele>
        <time>2021-06-16T08:25:58Z</time>
      </trkpt>
      <trkpt lat="45.38277" lon="4.43657">
        <ele>938.6</ele>
        <time>2021-06-16T08:26:00Z</time>
      </trkpt>
      <trkpt lat="45.38282" lon="4.4365">
        <ele>938.8</ele>
        <time>2021-06-16T08:26:03Z</time>
      </trkpt>
      <trkpt lat="45.38302" lon="4.43639">
        <ele>939.6</ele>
        <time>2021-06-16T08:26:11Z</time>
      </trkpt>
      <trkpt lat="45.38308" lon="4.43635">
        <ele>939.6</ele>
        <time>2021-06-16T08:26:14Z</time>
      </trkpt>
      <trkpt lat="45.38311" lon="4.43628">
        <ele>939.6</ele>
        <time>2021-06-16T08:26:17Z</time>
      </trkpt>
      <trkpt lat="45.38318" lon="4.4362">
        <ele>940</ele>
        <time>2021-06-16T08:26:21Z</time>
      </trkpt>
      <trkpt lat="45.38326" lon="4.43611">
        <ele>940.8</ele>
        <time>2021-06-16T08:26:27Z</time>
      </trkpt>
      <trkpt lat="45.38327" lon="4.43611">
        <ele>940.8</ele>
        <time>2021-06-16T08:26:28Z</time>
      </trkpt>
      <trkpt lat="45.38334" lon="4.43605">
        <ele>941</ele>
        <time>2021-06-16T08:26:32Z</time>
      </trkpt>
      <trkpt lat="45.38336" lon="4.436">
        <ele>941.2</ele>
        <time>2021-06-16T08:26:35Z</time>
      </trkpt>
      <trkpt lat="45.38343" lon="4.43591">
        <ele>941.4</ele>
        <time>2021-06-16T08:26:40Z</time>
      </trkpt>
      <trkpt lat="45.38342" lon="4.43565">
        <ele>941.8</ele>
        <time>2021-06-16T08:26:49Z</time>
      </trkpt>
      <trkpt lat="45.38342" lon="4.43552">
        <ele>942</ele>
        <time>2021-06-16T08:26:53Z</time>
      </trkpt>
      <trkpt lat="45.3836" lon="4.43533">
        <ele>942.8</ele>
        <time>2021-06-16T08:26:59Z</time>
      </trkpt>
      <trkpt lat="45.38365" lon="4.43531">
        <ele>943</ele>
        <time>2021-06-16T08:27:00Z</time>
      </trkpt>
      <trkpt lat="45.38375" lon="4.43526">
        <ele>943.2</ele>
        <time>2021-06-16T08:27:07Z</time>
      </trkpt>
      <trkpt lat="45.38378" lon="4.43524">
        <ele>943.4</ele>
        <time>2021-06-16T08:27:10Z</time>
      </trkpt>
      <trkpt lat="45.38391" lon="4.43524">
        <ele>944</ele>
        <time>2021-06-16T08:27:17Z</time>
      </trkpt>
      <trkpt lat="45.38396" lon="4.43526">
        <ele>944.2</ele>
        <time>2021-06-16T08:27:20Z</time>
      </trkpt>
      <trkpt lat="45.3841" lon="4.4353">
        <ele>944.8</ele>
        <time>2021-06-16T08:27:28Z</time>
      </trkpt>
      <trkpt lat="45.38416" lon="4.43535">
        <ele>945</ele>
        <time>2021-06-16T08:27:32Z</time>
      </trkpt>
      <trkpt lat="45.3842" lon="4.43535">
        <ele>945.2</ele>
        <time>2021-06-16T08:27:34Z</time>
      </trkpt>
      <trkpt lat="45.38438" lon="4.43522">
        <ele>945.8</ele>
        <time>2021-06-16T08:27:44Z</time>
      </trkpt>
      <trkpt lat="45.38445" lon="4.43522">
        <ele>946.2</ele>
        <time>2021-06-16T08:27:48Z</time>
      </trkpt>
      <trkpt lat="45.38465" lon="4.43517">
        <ele>946.6</ele>
        <time>2021-06-16T08:27:58Z</time>
      </trkpt>
      <trkpt lat="45.38483" lon="4.43513">
        <ele>946.8</ele>
        <time>2021-06-16T08:28:06Z</time>
      </trkpt>
      <trkpt lat="45.38492" lon="4.4351">
        <ele>947.2</ele>
        <time>2021-06-16T08:28:10Z</time>
      </trkpt>
      <trkpt lat="45.3851" lon="4.43503">
        <ele>947.8</ele>
        <time>2021-06-16T08:28:20Z</time>
      </trkpt>
      <trkpt lat="45.38523" lon="4.43501">
        <ele>948.2</ele>
        <time>2021-06-16T08:28:26Z</time>
      </trkpt>
      <trkpt lat="45.38541" lon="4.43495">
        <ele>949</ele>
        <time>2021-06-16T08:28:37Z</time>
      </trkpt>
      <trkpt lat="45.38547" lon="4.43491">
        <ele>949.4</ele>
        <time>2021-06-16T08:28:41Z</time>
      </trkpt>
      <trkpt lat="45.38561" lon="4.43489">
        <ele>950.4</ele>
        <time>2021-06-16T08:28:52Z</time>
      </trkpt>
      <trkpt lat="45.38565" lon="4.43488">
        <ele>950.4</ele>
        <time>2021-06-16T08:28:54Z</time>
      </trkpt>
      <trkpt lat="45.38583" lon="4.43476">
        <ele>950.8</ele>
        <time>2021-06-16T08:29:04Z</time>
      </trkpt>
      <trkpt lat="45.38599" lon="4.43465">
        <ele>951.4</ele>
        <time>2021-06-16T08:29:12Z</time>
      </trkpt>
      <trkpt lat="45.38616" lon="4.43452">
        <ele>952.4</ele>
        <time>2021-06-16T08:29:22Z</time>
      </trkpt>
      <trkpt lat="45.38618" lon="4.43451">
        <ele>952.4</ele>
        <time>2021-06-16T08:29:23Z</time>
      </trkpt>
      <trkpt lat="45.38632" lon="4.43432">
        <ele>953</ele>
        <time>2021-06-16T08:29:33Z</time>
      </trkpt>
      <trkpt lat="45.38633" lon="4.4343">
        <ele>953</ele>
        <time>2021-06-16T08:29:34Z</time>
      </trkpt>
      <trkpt lat="45.38641" lon="4.43415">
        <ele>953.4</ele>
        <time>2021-06-16T08:29:40Z</time>
      </trkpt>
      <trkpt lat="45.38655" lon="4.43394">
        <ele>953.8</ele>
        <time>2021-06-16T08:29:47Z</time>
      </trkpt>
      <trkpt lat="45.38657" lon="4.43387">
        <ele>954</ele>
        <time>2021-06-16T08:29:49Z</time>
      </trkpt>
      <trkpt lat="45.38661" lon="4.43369">
        <ele>954.4</ele>
        <time>2021-06-16T08:29:54Z</time>
      </trkpt>
      <trkpt lat="45.38662" lon="4.43364">
        <ele>954.6</ele>
        <time>2021-06-16T08:29:56Z</time>
      </trkpt>
      <trkpt lat="45.38671" lon="4.43342">
        <ele>955.4</ele>
        <time>2021-06-16T08:30:05Z</time>
      </trkpt>
      <trkpt lat="45.38671" lon="4.43316">
        <ele>955.4</ele>
        <time>2021-06-16T08:30:13Z</time>
      </trkpt>
      <trkpt lat="45.38672" lon="4.43301">
        <ele>955.6</ele>
        <time>2021-06-16T08:30:18Z</time>
      </trkpt>
      <trkpt lat="45.38675" lon="4.43273">
        <ele>956</ele>
        <time>2021-06-16T08:30:27Z</time>
      </trkpt>
      <trkpt lat="45.38675" lon="4.43265">
        <ele>956.2</ele>
        <time>2021-06-16T08:30:29Z</time>
      </trkpt>
      <trkpt lat="45.38681" lon="4.43256">
        <ele>956.4</ele>
        <time>2021-06-16T08:30:33Z</time>
      </trkpt>
      <trkpt lat="45.38692" lon="4.43253">
        <ele>956.6</ele>
        <time>2021-06-16T08:30:39Z</time>
      </trkpt>
      <trkpt lat="45.38709" lon="4.43267">
        <ele>957.2</ele>
        <time>2021-06-16T08:30:50Z</time>
      </trkpt>
      <trkpt lat="45.38718" lon="4.43281">
        <ele>957.6</ele>
        <time>2021-06-16T08:30:56Z</time>
      </trkpt>
      <trkpt lat="45.38731" lon="4.43299">
        <ele>958</ele>
        <time>2021-06-16T08:31:07Z</time>
      </trkpt>
      <trkpt lat="45.38748" lon="4.43308">
        <ele>958.6</ele>
        <time>2021-06-16T08:31:16Z</time>
      </trkpt>
      <trkpt lat="45.38767" lon="4.43308">
        <ele>958.6</ele>
        <time>2021-06-16T08:31:22Z</time>
      </trkpt>
      <trkpt lat="45.38787" lon="4.43299">
        <ele>959</ele>
        <time>2021-06-16T08:31:29Z</time>
      </trkpt>
      <trkpt lat="45.38802" lon="4.43283">
        <ele>959.4</ele>
        <time>2021-06-16T08:31:39Z</time>
      </trkpt>
      <trkpt lat="45.38809" lon="4.43271">
        <ele>959.4</ele>
        <time>2021-06-16T08:31:44Z</time>
      </trkpt>
      <trkpt lat="45.38817" lon="4.43245">
        <ele>959</ele>
        <time>2021-06-16T08:31:53Z</time>
      </trkpt>
      <trkpt lat="45.38822" lon="4.43231">
        <ele>958.8</ele>
        <time>2021-06-16T08:31:58Z</time>
      </trkpt>
      <trkpt lat="45.38824" lon="4.43204">
        <ele>958.6</ele>
        <time>2021-06-16T08:32:07Z</time>
      </trkpt>
      <trkpt lat="45.38827" lon="4.43177">
        <ele>958.2</ele>
        <time>2021-06-16T08:32:16Z</time>
      </trkpt>
      <trkpt lat="45.38829" lon="4.43155">
        <ele>958</ele>
        <time>2021-06-16T08:32:23Z</time>
      </trkpt>
      <trkpt lat="45.38832" lon="4.43129">
        <ele>957.6</ele>
        <time>2021-06-16T08:32:30Z</time>
      </trkpt>
      <trkpt lat="45.38835" lon="4.43121">
        <ele>957.6</ele>
        <time>2021-06-16T08:32:33Z</time>
      </trkpt>
      <trkpt lat="45.38839" lon="4.43096">
        <ele>957.4</ele>
        <time>2021-06-16T08:32:40Z</time>
      </trkpt>
      <trkpt lat="45.38844" lon="4.43071">
        <ele>957.2</ele>
        <time>2021-06-16T08:32:47Z</time>
      </trkpt>
      <trkpt lat="45.3885" lon="4.43045">
        <ele>957.2</ele>
        <time>2021-06-16T08:32:57Z</time>
      </trkpt>
      <trkpt lat="45.38851" lon="4.43016">
        <ele>957.2</ele>
        <time>2021-06-16T08:33:06Z</time>
      </trkpt>
      <trkpt lat="45.38852" lon="4.42987">
        <ele>957.6</ele>
        <time>2021-06-16T08:33:15Z</time>
      </trkpt>
      <trkpt lat="45.38853" lon="4.42959">
        <ele>958.4</ele>
        <time>2021-06-16T08:33:26Z</time>
      </trkpt>
      <trkpt lat="45.38853" lon="4.42953">
        <ele>958.6</ele>
        <time>2021-06-16T08:33:28Z</time>
      </trkpt>
      <trkpt lat="45.38852" lon="4.4293">
        <ele>959.2</ele>
        <time>2021-06-16T08:33:35Z</time>
      </trkpt>
      <trkpt lat="45.3885" lon="4.42911">
        <ele>959.4</ele>
        <time>2021-06-16T08:33:40Z</time>
      </trkpt>
      <trkpt lat="45.38849" lon="4.429">
        <ele>959.6</ele>
        <time>2021-06-16T08:33:44Z</time>
      </trkpt>
      <trkpt lat="45.38848" lon="4.4287">
        <ele>960.4</ele>
        <time>2021-06-16T08:33:53Z</time>
      </trkpt>
      <trkpt lat="45.38847" lon="4.42842">
        <ele>960.2</ele>
        <time>2021-06-16T08:34:01Z</time>
      </trkpt>
      <trkpt lat="45.38857" lon="4.4282">
        <ele>960.2</ele>
        <time>2021-06-16T08:34:09Z</time>
      </trkpt>
      <trkpt lat="45.3887" lon="4.42798">
        <ele>960.4</ele>
        <time>2021-06-16T08:34:18Z</time>
      </trkpt>
      <trkpt lat="45.38884" lon="4.42779">
        <ele>960.2</ele>
        <time>2021-06-16T08:34:25Z</time>
      </trkpt>
      <trkpt lat="45.38894" lon="4.4276">
        <ele>960.6</ele>
        <time>2021-06-16T08:34:32Z</time>
      </trkpt>
      <trkpt lat="45.38907" lon="4.42739">
        <ele>961</ele>
        <time>2021-06-16T08:34:40Z</time>
      </trkpt>
      <trkpt lat="45.38916" lon="4.42714">
        <ele>961.4</ele>
        <time>2021-06-16T08:34:49Z</time>
      </trkpt>
      <trkpt lat="45.3892" lon="4.42688">
        <ele>961</ele>
        <time>2021-06-16T08:34:58Z</time>
      </trkpt>
      <trkpt lat="45.38921" lon="4.42661">
        <ele>961</ele>
        <time>2021-06-16T08:35:08Z</time>
      </trkpt>
      <trkpt lat="45.38923" lon="4.42635">
        <ele>961.6</ele>
        <time>2021-06-16T08:35:18Z</time>
      </trkpt>
      <trkpt lat="45.38922" lon="4.4263">
        <ele>961.8</ele>
        <time>2021-06-16T08:35:19Z</time>
      </trkpt>
      <trkpt lat="45.38922" lon="4.42622">
        <ele>962</ele>
        <time>2021-06-16T08:35:21Z</time>
      </trkpt>
      <trkpt lat="45.38918" lon="4.42594">
        <ele>961.8</ele>
        <time>2021-06-16T08:35:29Z</time>
      </trkpt>
      <trkpt lat="45.38921" lon="4.4257">
        <ele>961</ele>
        <time>2021-06-16T08:35:40Z</time>
      </trkpt>
      <trkpt lat="45.3892" lon="4.42556">
        <ele>960.6</ele>
        <time>2021-06-16T08:35:47Z</time>
      </trkpt>
      <trkpt lat="45.38917" lon="4.42542">
        <ele>960.4</ele>
        <time>2021-06-16T08:35:52Z</time>
      </trkpt>
      <trkpt lat="45.38916" lon="4.42538">
        <ele>960.4</ele>
        <time>2021-06-16T08:35:53Z</time>
      </trkpt>
      <trkpt lat="45.38913" lon="4.4252">
        <ele>960.2</ele>
        <time>2021-06-16T08:35:57Z</time>
      </trkpt>
      <trkpt lat="45.38908" lon="4.42505">
        <ele>960.2</ele>
        <time>2021-06-16T08:35:59Z</time>
      </trkpt>
      <trkpt lat="45.38902" lon="4.42498">
        <ele>960.2</ele>
        <time>2021-06-16T08:36:02Z</time>
      </trkpt>
      <trkpt lat="45.38889" lon="4.42504">
        <ele>961.8</ele>
        <time>2021-06-16T08:36:11Z</time>
      </trkpt>
      <trkpt lat="45.38889" lon="4.42516">
        <ele>963</ele>
        <time>2021-06-16T08:36:19Z</time>
      </trkpt>
      <trkpt lat="45.38892" lon="4.42524">
        <ele>964</ele>
        <time>2021-06-16T08:36:23Z</time>
      </trkpt>
      <trkpt lat="45.38894" lon="4.42531">
        <ele>965.2</ele>
        <time>2021-06-16T08:36:27Z</time>
      </trkpt>
      <trkpt lat="45.38894" lon="4.42539">
        <ele>966.4</ele>
        <time>2021-06-16T08:36:31Z</time>
      </trkpt>
      <trkpt lat="45.38894" lon="4.42546">
        <ele>967</ele>
        <time>2021-06-16T08:36:34Z</time>
      </trkpt>
      <trkpt lat="45.38892" lon="4.42552">
        <ele>967.4</ele>
        <time>2021-06-16T08:36:37Z</time>
      </trkpt>
      <trkpt lat="45.38892" lon="4.42564">
        <ele>968.4</ele>
        <time>2021-06-16T08:36:43Z</time>
      </trkpt>
      <trkpt lat="45.38891" lon="4.42575">
        <ele>969.6</ele>
        <time>2021-06-16T08:36:49Z</time>
      </trkpt>
      <trkpt lat="45.3889" lon="4.42582">
        <ele>970</ele>
        <time>2021-06-16T08:36:53Z</time>
      </trkpt>
      <trkpt lat="45.38888" lon="4.42597">
        <ele>970.6</ele>
        <time>2021-06-16T08:36:59Z</time>
      </trkpt>
      <trkpt lat="45.38887" lon="4.42601">
        <ele>970.8</ele>
        <time>2021-06-16T08:37:02Z</time>
      </trkpt>
      <trkpt lat="45.38877" lon="4.42619">
        <ele>971.6</ele>
        <time>2021-06-16T08:37:11Z</time>
      </trkpt>
      <trkpt lat="45.3887" lon="4.42646">
        <ele>972.4</ele>
        <time>2021-06-16T08:37:20Z</time>
      </trkpt>
      <trkpt lat="45.38867" lon="4.4265">
        <ele>972.6</ele>
        <time>2021-06-16T08:37:22Z</time>
      </trkpt>
      <trkpt lat="45.38854" lon="4.42671">
        <ele>973.8</ele>
        <time>2021-06-16T08:37:32Z</time>
      </trkpt>
      <trkpt lat="45.38845" lon="4.42683">
        <ele>974.8</ele>
        <time>2021-06-16T08:37:40Z</time>
      </trkpt>
      <trkpt lat="45.38834" lon="4.42701">
        <ele>975.8</ele>
        <time>2021-06-16T08:37:50Z</time>
      </trkpt>
      <trkpt lat="45.38822" lon="4.42722">
        <ele>976.8</ele>
        <time>2021-06-16T08:38:00Z</time>
      </trkpt>
      <trkpt lat="45.38819" lon="4.42726">
        <ele>977</ele>
        <time>2021-06-16T08:38:02Z</time>
      </trkpt>
      <trkpt lat="45.38806" lon="4.42745">
        <ele>977.6</ele>
        <time>2021-06-16T08:38:11Z</time>
      </trkpt>
      <trkpt lat="45.38802" lon="4.42751">
        <ele>978</ele>
        <time>2021-06-16T08:38:14Z</time>
      </trkpt>
      <trkpt lat="45.3879" lon="4.42769">
        <ele>979</ele>
        <time>2021-06-16T08:38:25Z</time>
      </trkpt>
      <trkpt lat="45.38785" lon="4.42787">
        <ele>980.2</ele>
        <time>2021-06-16T08:38:33Z</time>
      </trkpt>
      <trkpt lat="45.38778" lon="4.428">
        <ele>980.8</ele>
        <time>2021-06-16T08:38:41Z</time>
      </trkpt>
      <trkpt lat="45.38777" lon="4.42805">
        <ele>981.2</ele>
        <time>2021-06-16T08:38:43Z</time>
      </trkpt>
      <trkpt lat="45.38775" lon="4.42808">
        <ele>981.4</ele>
        <time>2021-06-16T08:38:44Z</time>
      </trkpt>
      <trkpt lat="45.38766" lon="4.42822">
        <ele>982.4</ele>
        <time>2021-06-16T08:38:52Z</time>
      </trkpt>
      <trkpt lat="45.38762" lon="4.42827">
        <ele>982.8</ele>
        <time>2021-06-16T08:38:55Z</time>
      </trkpt>
      <trkpt lat="45.3876" lon="4.42841">
        <ele>983.4</ele>
        <time>2021-06-16T08:39:01Z</time>
      </trkpt>
      <trkpt lat="45.3876" lon="4.42851">
        <ele>984</ele>
        <time>2021-06-16T08:39:05Z</time>
      </trkpt>
      <trkpt lat="45.38755" lon="4.42863">
        <ele>984.4</ele>
        <time>2021-06-16T08:39:11Z</time>
      </trkpt>
      <trkpt lat="45.38753" lon="4.42869">
        <ele>984.8</ele>
        <time>2021-06-16T08:39:13Z</time>
      </trkpt>
      <trkpt lat="45.38751" lon="4.42882">
        <ele>985.6</ele>
        <time>2021-06-16T08:39:18Z</time>
      </trkpt>
      <trkpt lat="45.3875" lon="4.42884">
        <ele>985.8</ele>
        <time>2021-06-16T08:39:19Z</time>
      </trkpt>
      <trkpt lat="45.38741" lon="4.42901">
        <ele>986.8</ele>
        <time>2021-06-16T08:39:27Z</time>
      </trkpt>
      <trkpt lat="45.38734" lon="4.4292">
        <ele>987.8</ele>
        <time>2021-06-16T08:39:35Z</time>
      </trkpt>
      <trkpt lat="45.38731" lon="4.42931">
        <ele>989</ele>
        <time>2021-06-16T08:39:40Z</time>
      </trkpt>
      <trkpt lat="45.38727" lon="4.42942">
        <ele>989.8</ele>
        <time>2021-06-16T08:39:46Z</time>
      </trkpt>
      <trkpt lat="45.38727" lon="4.42944">
        <ele>990</ele>
        <time>2021-06-16T08:39:47Z</time>
      </trkpt>
      <trkpt lat="45.38723" lon="4.42955">
        <ele>991.2</ele>
        <time>2021-06-16T08:39:53Z</time>
      </trkpt>
      <trkpt lat="45.38719" lon="4.42971">
        <ele>992.2</ele>
        <time>2021-06-16T08:40:01Z</time>
      </trkpt>
      <trkpt lat="45.38712" lon="4.42979">
        <ele>992.6</ele>
        <time>2021-06-16T08:40:06Z</time>
      </trkpt>
      <trkpt lat="45.3871" lon="4.42983">
        <ele>992.8</ele>
        <time>2021-06-16T08:40:08Z</time>
      </trkpt>
      <trkpt lat="45.38704" lon="4.42998">
        <ele>993.2</ele>
        <time>2021-06-16T08:40:14Z</time>
      </trkpt>
      <trkpt lat="45.38694" lon="4.43019">
        <ele>993.2</ele>
        <time>2021-06-16T08:40:22Z</time>
      </trkpt>
      <trkpt lat="45.38686" lon="4.43029">
        <ele>993.2</ele>
        <time>2021-06-16T08:40:27Z</time>
      </trkpt>
      <trkpt lat="45.3867" lon="4.43043">
        <ele>993.8</ele>
        <time>2021-06-16T08:40:37Z</time>
      </trkpt>
      <trkpt lat="45.38662" lon="4.43047">
        <ele>994.4</ele>
        <time>2021-06-16T08:40:42Z</time>
      </trkpt>
      <trkpt lat="45.38644" lon="4.43054">
        <ele>994.4</ele>
        <time>2021-06-16T08:40:52Z</time>
      </trkpt>
      <trkpt lat="45.38642" lon="4.43055">
        <ele>994.4</ele>
        <time>2021-06-16T08:40:53Z</time>
      </trkpt>
      <trkpt lat="45.38622" lon="4.43057">
        <ele>993.8</ele>
        <time>2021-06-16T08:41:03Z</time>
      </trkpt>
      <trkpt lat="45.38604" lon="4.43063">
        <ele>994</ele>
        <time>2021-06-16T08:41:12Z</time>
      </trkpt>
      <trkpt lat="45.38589" lon="4.43073">
        <ele>994.2</ele>
        <time>2021-06-16T08:41:20Z</time>
      </trkpt>
      <trkpt lat="45.38586" lon="4.43076">
        <ele>994.2</ele>
        <time>2021-06-16T08:41:22Z</time>
      </trkpt>
      <trkpt lat="45.38576" lon="4.43086">
        <ele>994.4</ele>
        <time>2021-06-16T08:41:27Z</time>
      </trkpt>
      <trkpt lat="45.38571" lon="4.43092">
        <ele>994.4</ele>
        <time>2021-06-16T08:41:30Z</time>
      </trkpt>
      <trkpt lat="45.3857" lon="4.43098">
        <ele>994.6</ele>
        <time>2021-06-16T08:41:32Z</time>
      </trkpt>
      <trkpt lat="45.38563" lon="4.43109">
        <ele>994.8</ele>
        <time>2021-06-16T08:41:38Z</time>
      </trkpt>
      <trkpt lat="45.38557" lon="4.43123">
        <ele>995</ele>
        <time>2021-06-16T08:41:45Z</time>
      </trkpt>
      <trkpt lat="45.38556" lon="4.43155">
        <ele>995</ele>
        <time>2021-06-16T08:41:54Z</time>
      </trkpt>
      <trkpt lat="45.38555" lon="4.43184">
        <ele>995.4</ele>
        <time>2021-06-16T08:42:02Z</time>
      </trkpt>
      <trkpt lat="45.38555" lon="4.4319">
        <ele>995.8</ele>
        <time>2021-06-16T08:42:04Z</time>
      </trkpt>
      <trkpt lat="45.38552" lon="4.43197">
        <ele>996.4</ele>
        <time>2021-06-16T08:42:08Z</time>
      </trkpt>
      <trkpt lat="45.38551" lon="4.43199">
        <ele>996.6</ele>
        <time>2021-06-16T08:42:09Z</time>
      </trkpt>
      <trkpt lat="45.38548" lon="4.43204">
        <ele>997</ele>
        <time>2021-06-16T08:42:12Z</time>
      </trkpt>
      <trkpt lat="45.38544" lon="4.43211">
        <ele>997.6</ele>
        <time>2021-06-16T08:42:16Z</time>
      </trkpt>
      <trkpt lat="45.38538" lon="4.43221">
        <ele>998.6</ele>
        <time>2021-06-16T08:42:21Z</time>
      </trkpt>
      <trkpt lat="45.38537" lon="4.43223">
        <ele>998.8</ele>
        <time>2021-06-16T08:42:22Z</time>
      </trkpt>
      <trkpt lat="45.38528" lon="4.4323">
        <ele>1000</ele>
        <time>2021-06-16T08:42:28Z</time>
      </trkpt>
      <trkpt lat="45.38515" lon="4.43252">
        <ele>1000.6</ele>
        <time>2021-06-16T08:42:39Z</time>
      </trkpt>
      <trkpt lat="45.38502" lon="4.43275">
        <ele>1000.2</ele>
        <time>2021-06-16T08:42:48Z</time>
      </trkpt>
      <trkpt lat="45.38493" lon="4.43297">
        <ele>1000.8</ele>
        <time>2021-06-16T08:42:56Z</time>
      </trkpt>
      <trkpt lat="45.3849" lon="4.43304">
        <ele>1001</ele>
        <time>2021-06-16T08:42:59Z</time>
      </trkpt>
      <trkpt lat="45.38473" lon="4.43318">
        <ele>1001.6</ele>
        <time>2021-06-16T08:43:09Z</time>
      </trkpt>
      <trkpt lat="45.38454" lon="4.43316">
        <ele>1001.2</ele>
        <time>2021-06-16T08:43:19Z</time>
      </trkpt>
      <trkpt lat="45.38435" lon="4.43314">
        <ele>1001.2</ele>
        <time>2021-06-16T08:43:28Z</time>
      </trkpt>
      <trkpt lat="45.38416" lon="4.43314">
        <ele>1000.8</ele>
        <time>2021-06-16T08:43:35Z</time>
      </trkpt>
      <trkpt lat="45.38398" lon="4.43309">
        <ele>1000.6</ele>
        <time>2021-06-16T08:43:44Z</time>
      </trkpt>
      <trkpt lat="45.38383" lon="4.43308">
        <ele>999.8</ele>
        <time>2021-06-16T08:43:51Z</time>
      </trkpt>
      <trkpt lat="45.38381" lon="4.43308">
        <ele>999.8</ele>
        <time>2021-06-16T08:43:52Z</time>
      </trkpt>
      <trkpt lat="45.38371" lon="4.43308">
        <ele>999.4</ele>
        <time>2021-06-16T08:43:57Z</time>
      </trkpt>
      <trkpt lat="45.38355" lon="4.43304">
        <ele>998.6</ele>
        <time>2021-06-16T08:44:05Z</time>
      </trkpt>
      <trkpt lat="45.38335" lon="4.43308">
        <ele>997.8</ele>
        <time>2021-06-16T08:44:15Z</time>
      </trkpt>
      <trkpt lat="45.38332" lon="4.43311">
        <ele>997.6</ele>
        <time>2021-06-16T08:44:17Z</time>
      </trkpt>
      <trkpt lat="45.38323" lon="4.43316">
        <ele>997</ele>
        <time>2021-06-16T08:44:21Z</time>
      </trkpt>
      <trkpt lat="45.38311" lon="4.43325">
        <ele>996.6</ele>
        <time>2021-06-16T08:44:27Z</time>
      </trkpt>
      <trkpt lat="45.38308" lon="4.43326">
        <ele>996.6</ele>
        <time>2021-06-16T08:44:28Z</time>
      </trkpt>
      <trkpt lat="45.38297" lon="4.43334">
        <ele>995.8</ele>
        <time>2021-06-16T08:44:32Z</time>
      </trkpt>
      <trkpt lat="45.38293" lon="4.43337">
        <ele>995.4</ele>
        <time>2021-06-16T08:44:34Z</time>
      </trkpt>
      <trkpt lat="45.38286" lon="4.43345">
        <ele>994.8</ele>
        <time>2021-06-16T08:44:38Z</time>
      </trkpt>
      <trkpt lat="45.38278" lon="4.43354">
        <ele>994.4</ele>
        <time>2021-06-16T08:44:43Z</time>
      </trkpt>
      <trkpt lat="45.38263" lon="4.43368">
        <ele>993.8</ele>
        <time>2021-06-16T08:44:50Z</time>
      </trkpt>
      <trkpt lat="45.38248" lon="4.4339">
        <ele>993.4</ele>
        <time>2021-06-16T08:44:56Z</time>
      </trkpt>
      <trkpt lat="45.38246" lon="4.43394">
        <ele>993.2</ele>
        <time>2021-06-16T08:44:57Z</time>
      </trkpt>
      <trkpt lat="45.38233" lon="4.43413">
        <ele>992.8</ele>
        <time>2021-06-16T08:45:03Z</time>
      </trkpt>
      <trkpt lat="45.38219" lon="4.4343">
        <ele>992.6</ele>
        <time>2021-06-16T08:45:10Z</time>
      </trkpt>
      <trkpt lat="45.38208" lon="4.43437">
        <ele>992.2</ele>
        <time>2021-06-16T08:45:15Z</time>
      </trkpt>
      <trkpt lat="45.38189" lon="4.43446">
        <ele>992</ele>
        <time>2021-06-16T08:45:24Z</time>
      </trkpt>
      <trkpt lat="45.38181" lon="4.43451">
        <ele>991.2</ele>
        <time>2021-06-16T08:45:28Z</time>
      </trkpt>
      <trkpt lat="45.3817" lon="4.43455">
        <ele>990</ele>
        <time>2021-06-16T08:45:33Z</time>
      </trkpt>
      <trkpt lat="45.38158" lon="4.43454">
        <ele>988.8</ele>
        <time>2021-06-16T08:45:38Z</time>
      </trkpt>
      <trkpt lat="45.38149" lon="4.43451">
        <ele>987.6</ele>
        <time>2021-06-16T08:45:42Z</time>
      </trkpt>
      <trkpt lat="45.38143" lon="4.43449">
        <ele>986.6</ele>
        <time>2021-06-16T08:45:45Z</time>
      </trkpt>
      <trkpt lat="45.38134" lon="4.43445">
        <ele>985.6</ele>
        <time>2021-06-16T08:45:50Z</time>
      </trkpt>
      <trkpt lat="45.3812" lon="4.43436">
        <ele>984.8</ele>
        <time>2021-06-16T08:45:58Z</time>
      </trkpt>
      <trkpt lat="45.3811" lon="4.4343">
        <ele>984.6</ele>
        <time>2021-06-16T08:46:04Z</time>
      </trkpt>
      <trkpt lat="45.38093" lon="4.43418">
        <ele>984.2</ele>
        <time>2021-06-16T08:46:13Z</time>
      </trkpt>
      <trkpt lat="45.38084" lon="4.43405">
        <ele>983.4</ele>
        <time>2021-06-16T08:46:17Z</time>
      </trkpt>
      <trkpt lat="45.38075" lon="4.43391">
        <ele>982.8</ele>
        <time>2021-06-16T08:46:22Z</time>
      </trkpt>
      <trkpt lat="45.38065" lon="4.43374">
        <ele>982.4</ele>
        <time>2021-06-16T08:46:28Z</time>
      </trkpt>
      <trkpt lat="45.38063" lon="4.43372">
        <ele>982.2</ele>
        <time>2021-06-16T08:46:29Z</time>
      </trkpt>
      <trkpt lat="45.3806" lon="4.43368">
        <ele>982</ele>
        <time>2021-06-16T08:46:31Z</time>
      </trkpt>
      <trkpt lat="45.38053" lon="4.43358">
        <ele>981.6</ele>
        <time>2021-06-16T08:46:35Z</time>
      </trkpt>
      <trkpt lat="45.38049" lon="4.43345">
        <ele>981.2</ele>
        <time>2021-06-16T08:46:39Z</time>
      </trkpt>
      <trkpt lat="45.38039" lon="4.43331">
        <ele>980</ele>
        <time>2021-06-16T08:46:45Z</time>
      </trkpt>
      <trkpt lat="45.38022" lon="4.4333">
        <ele>980</ele>
        <time>2021-06-16T08:46:55Z</time>
      </trkpt>
      <trkpt lat="45.38015" lon="4.43344">
        <ele>979.6</ele>
        <time>2021-06-16T08:47:01Z</time>
      </trkpt>
      <trkpt lat="45.38003" lon="4.43365">
        <ele>979.6</ele>
        <time>2021-06-16T08:47:09Z</time>
      </trkpt>
      <trkpt lat="45.37998" lon="4.43374">
        <ele>979.6</ele>
        <time>2021-06-16T08:47:13Z</time>
      </trkpt>
      <trkpt lat="45.37996" lon="4.43379">
        <ele>979.8</ele>
        <time>2021-06-16T08:47:17Z</time>
      </trkpt>
      <trkpt lat="45.37986" lon="4.43403">
        <ele>980.8</ele>
        <time>2021-06-16T08:47:26Z</time>
      </trkpt>
      <trkpt lat="45.37984" lon="4.43409">
        <ele>981</ele>
        <time>2021-06-16T08:47:28Z</time>
      </trkpt>
      <trkpt lat="45.37979" lon="4.43414">
        <ele>981.6</ele>
        <time>2021-06-16T08:47:31Z</time>
      </trkpt>
      <trkpt lat="45.37973" lon="4.43419">
        <ele>982.2</ele>
        <time>2021-06-16T08:47:35Z</time>
      </trkpt>
      <trkpt lat="45.37964" lon="4.43417">
        <ele>983.2</ele>
        <time>2021-06-16T08:47:42Z</time>
      </trkpt>
      <trkpt lat="45.37952" lon="4.43424">
        <ele>984.2</ele>
        <time>2021-06-16T08:47:47Z</time>
      </trkpt>
      <trkpt lat="45.37946" lon="4.43428">
        <ele>985</ele>
        <time>2021-06-16T08:47:50Z</time>
      </trkpt>
      <trkpt lat="45.37945" lon="4.43429">
        <ele>985.4</ele>
        <time>2021-06-16T08:47:51Z</time>
      </trkpt>
      <trkpt lat="45.37936" lon="4.4343">
        <ele>986.4</ele>
        <time>2021-06-16T08:47:56Z</time>
      </trkpt>
      <trkpt lat="45.37918" lon="4.4343">
        <ele>986.6</ele>
        <time>2021-06-16T08:48:06Z</time>
      </trkpt>
      <trkpt lat="45.379" lon="4.43425">
        <ele>985.8</ele>
        <time>2021-06-16T08:48:18Z</time>
      </trkpt>
      <trkpt lat="45.37895" lon="4.43421">
        <ele>985.8</ele>
        <time>2021-06-16T08:48:22Z</time>
      </trkpt>
      <trkpt lat="45.37892" lon="4.43418">
        <ele>985.6</ele>
        <time>2021-06-16T08:48:25Z</time>
      </trkpt>
      <trkpt lat="45.37887" lon="4.43416">
        <ele>985.6</ele>
        <time>2021-06-16T08:48:28Z</time>
      </trkpt>
      <trkpt lat="45.3788" lon="4.43412">
        <ele>985.6</ele>
        <time>2021-06-16T08:48:32Z</time>
      </trkpt>
      <trkpt lat="45.37873" lon="4.43409">
        <ele>985.4</ele>
        <time>2021-06-16T08:48:36Z</time>
      </trkpt>
      <trkpt lat="45.37865" lon="4.43407">
        <ele>985.8</ele>
        <time>2021-06-16T08:48:40Z</time>
      </trkpt>
      <trkpt lat="45.37858" lon="4.43415">
        <ele>985.8</ele>
        <time>2021-06-16T08:48:43Z</time>
      </trkpt>
      <trkpt lat="45.3785" lon="4.43438">
        <ele>986.8</ele>
        <time>2021-06-16T08:48:52Z</time>
      </trkpt>
      <trkpt lat="45.37849" lon="4.43442">
        <ele>987</ele>
        <time>2021-06-16T08:48:54Z</time>
      </trkpt>
      <trkpt lat="45.37849" lon="4.43444">
        <ele>987.2</ele>
        <time>2021-06-16T08:48:55Z</time>
      </trkpt>
      <trkpt lat="45.37848" lon="4.43445">
        <ele>987.4</ele>
        <time>2021-06-16T08:48:56Z</time>
      </trkpt>
      <trkpt lat="45.37848" lon="4.43447">
        <ele>987.4</ele>
        <time>2021-06-16T08:48:57Z</time>
      </trkpt>
      <trkpt lat="45.37847" lon="4.43456">
        <ele>987.8</ele>
        <time>2021-06-16T08:49:01Z</time>
      </trkpt>
      <trkpt lat="45.37845" lon="4.43476">
        <ele>988.4</ele>
        <time>2021-06-16T08:49:08Z</time>
      </trkpt>
      <trkpt lat="45.37837" lon="4.43497">
        <ele>989.6</ele>
        <time>2021-06-16T08:49:19Z</time>
      </trkpt>
      <trkpt lat="45.37835" lon="4.43505">
        <ele>990.4</ele>
        <time>2021-06-16T08:49:23Z</time>
      </trkpt>
      <trkpt lat="45.37834" lon="4.43508">
        <ele>990.8</ele>
        <time>2021-06-16T08:49:24Z</time>
      </trkpt>
      <trkpt lat="45.37834" lon="4.4351">
        <ele>991</ele>
        <time>2021-06-16T08:49:25Z</time>
      </trkpt>
      <trkpt lat="45.37832" lon="4.43517">
        <ele>991.6</ele>
        <time>2021-06-16T08:49:28Z</time>
      </trkpt>
      <trkpt lat="45.37831" lon="4.43519">
        <ele>991.8</ele>
        <time>2021-06-16T08:49:29Z</time>
      </trkpt>
      <trkpt lat="45.37829" lon="4.43529">
        <ele>992.8</ele>
        <time>2021-06-16T08:49:34Z</time>
      </trkpt>
      <trkpt lat="45.37826" lon="4.43533">
        <ele>993.4</ele>
        <time>2021-06-16T08:49:38Z</time>
      </trkpt>
      <trkpt lat="45.37824" lon="4.43538">
        <ele>993.6</ele>
        <time>2021-06-16T08:49:41Z</time>
      </trkpt>
      <trkpt lat="45.3782" lon="4.43542">
        <ele>993.6</ele>
        <time>2021-06-16T08:49:44Z</time>
      </trkpt>
      <trkpt lat="45.37817" lon="4.43544">
        <ele>994</ele>
        <time>2021-06-16T08:49:47Z</time>
      </trkpt>
      <trkpt lat="45.37814" lon="4.4355">
        <ele>994.2</ele>
        <time>2021-06-16T08:49:51Z</time>
      </trkpt>
      <trkpt lat="45.37806" lon="4.43567">
        <ele>994.8</ele>
        <time>2021-06-16T08:50:01Z</time>
      </trkpt>
      <trkpt lat="45.378" lon="4.43573">
        <ele>995</ele>
        <time>2021-06-16T08:50:06Z</time>
      </trkpt>
      <trkpt lat="45.37786" lon="4.43587">
        <ele>995</ele>
        <time>2021-06-16T08:50:16Z</time>
      </trkpt>
      <trkpt lat="45.37785" lon="4.43589">
        <ele>995.2</ele>
        <time>2021-06-16T08:50:17Z</time>
      </trkpt>
      <trkpt lat="45.37784" lon="4.4359">
        <ele>995.4</ele>
        <time>2021-06-16T08:50:18Z</time>
      </trkpt>
      <trkpt lat="45.37781" lon="4.43595">
        <ele>995.6</ele>
        <time>2021-06-16T08:50:21Z</time>
      </trkpt>
      <trkpt lat="45.3778" lon="4.43597">
        <ele>995.6</ele>
        <time>2021-06-16T08:50:22Z</time>
      </trkpt>
      <trkpt lat="45.37775" lon="4.43602">
        <ele>995.6</ele>
        <time>2021-06-16T08:50:26Z</time>
      </trkpt>
      <trkpt lat="45.37767" lon="4.43611">
        <ele>996</ele>
        <time>2021-06-16T08:50:32Z</time>
      </trkpt>
      <trkpt lat="45.37757" lon="4.43616">
        <ele>997</ele>
        <time>2021-06-16T08:50:40Z</time>
      </trkpt>
      <trkpt lat="45.37746" lon="4.43619">
        <ele>997.6</ele>
        <time>2021-06-16T08:50:46Z</time>
      </trkpt>
      <trkpt lat="45.37736" lon="4.43625">
        <ele>997.8</ele>
        <time>2021-06-16T08:50:52Z</time>
      </trkpt>
      <trkpt lat="45.37733" lon="4.43627">
        <ele>997.8</ele>
        <time>2021-06-16T08:50:54Z</time>
      </trkpt>
      <trkpt lat="45.37729" lon="4.43628">
        <ele>998</ele>
        <time>2021-06-16T08:50:57Z</time>
      </trkpt>
      <trkpt lat="45.37729" lon="4.43629">
        <ele>998.2</ele>
        <time>2021-06-16T08:50:58Z</time>
      </trkpt>
      <trkpt lat="45.37728" lon="4.43629">
        <ele>998.2</ele>
        <time>2021-06-16T08:50:59Z</time>
      </trkpt>
      <trkpt lat="45.37726" lon="4.43629">
        <ele>998.4</ele>
        <time>2021-06-16T08:51:01Z</time>
      </trkpt>
      <trkpt lat="45.37723" lon="4.4363">
        <ele>998.6</ele>
        <time>2021-06-16T08:51:03Z</time>
      </trkpt>
      <trkpt lat="45.37713" lon="4.43634">
        <ele>998.8</ele>
        <time>2021-06-16T08:51:08Z</time>
      </trkpt>
      <trkpt lat="45.37711" lon="4.43635">
        <ele>998.8</ele>
        <time>2021-06-16T08:51:10Z</time>
      </trkpt>
      <trkpt lat="45.37707" lon="4.43635">
        <ele>998.8</ele>
        <time>2021-06-16T08:51:13Z</time>
      </trkpt>
      <trkpt lat="45.37704" lon="4.43635">
        <ele>999</ele>
        <time>2021-06-16T08:51:15Z</time>
      </trkpt>
      <trkpt lat="45.37702" lon="4.43636">
        <ele>999</ele>
        <time>2021-06-16T08:51:16Z</time>
      </trkpt>
      <trkpt lat="45.37688" lon="4.43644">
        <ele>999.2</ele>
        <time>2021-06-16T08:51:23Z</time>
      </trkpt>
      <trkpt lat="45.37686" lon="4.43645">
        <ele>999.2</ele>
        <time>2021-06-16T08:51:24Z</time>
      </trkpt>
      <trkpt lat="45.37673" lon="4.4365">
        <ele>999.8</ele>
        <time>2021-06-16T08:51:31Z</time>
      </trkpt>
      <trkpt lat="45.37663" lon="4.43653">
        <ele>1000.2</ele>
        <time>2021-06-16T08:51:37Z</time>
      </trkpt>
      <trkpt lat="45.37661" lon="4.43653">
        <ele>1000.4</ele>
        <time>2021-06-16T08:51:39Z</time>
      </trkpt>
      <trkpt lat="45.37652" lon="4.43656">
        <ele>1000.6</ele>
        <time>2021-06-16T08:51:43Z</time>
      </trkpt>
      <trkpt lat="45.37631" lon="4.43663">
        <ele>1001.2</ele>
        <time>2021-06-16T08:51:52Z</time>
      </trkpt>
      <trkpt lat="45.37629" lon="4.43664">
        <ele>1001.2</ele>
        <time>2021-06-16T08:51:53Z</time>
      </trkpt>
      <trkpt lat="45.37622" lon="4.43668">
        <ele>1001.6</ele>
        <time>2021-06-16T08:51:57Z</time>
      </trkpt>
      <trkpt lat="45.37613" lon="4.43671">
        <ele>1002.2</ele>
        <time>2021-06-16T08:52:03Z</time>
      </trkpt>
      <trkpt lat="45.37612" lon="4.43671">
        <ele>1002.4</ele>
        <time>2021-06-16T08:52:04Z</time>
      </trkpt>
      <trkpt lat="45.37598" lon="4.43673">
        <ele>1003.6</ele>
        <time>2021-06-16T08:52:12Z</time>
      </trkpt>
      <trkpt lat="45.37583" lon="4.43675">
        <ele>1004.2</ele>
        <time>2021-06-16T08:52:20Z</time>
      </trkpt>
      <trkpt lat="45.37574" lon="4.43674">
        <ele>1004.4</ele>
        <time>2021-06-16T08:52:25Z</time>
      </trkpt>
      <trkpt lat="45.37569" lon="4.43673">
        <ele>1004.6</ele>
        <time>2021-06-16T08:52:28Z</time>
      </trkpt>
      <trkpt lat="45.37551" lon="4.43684">
        <ele>1005.2</ele>
        <time>2021-06-16T08:52:36Z</time>
      </trkpt>
      <trkpt lat="45.37535" lon="4.43695">
        <ele>1005.6</ele>
        <time>2021-06-16T08:52:44Z</time>
      </trkpt>
      <trkpt lat="45.37521" lon="4.43712">
        <ele>1006</ele>
        <time>2021-06-16T08:52:53Z</time>
      </trkpt>
      <trkpt lat="45.37515" lon="4.43719">
        <ele>1006.4</ele>
        <time>2021-06-16T08:52:58Z</time>
      </trkpt>
      <trkpt lat="45.37513" lon="4.43721">
        <ele>1006.6</ele>
        <time>2021-06-16T08:53:01Z</time>
      </trkpt>
      <trkpt lat="45.37512" lon="4.43723">
        <ele>1006.6</ele>
        <time>2021-06-16T08:53:02Z</time>
      </trkpt>
      <trkpt lat="45.37511" lon="4.43727">
        <ele>1006.8</ele>
        <time>2021-06-16T08:53:04Z</time>
      </trkpt>
      <trkpt lat="45.37508" lon="4.43734">
        <ele>1007.4</ele>
        <time>2021-06-16T08:53:07Z</time>
      </trkpt>
      <trkpt lat="45.37504" lon="4.4374">
        <ele>1007.8</ele>
        <time>2021-06-16T08:53:10Z</time>
      </trkpt>
      <trkpt lat="45.37503" lon="4.43744">
        <ele>1007.8</ele>
        <time>2021-06-16T08:53:12Z</time>
      </trkpt>
      <trkpt lat="45.37503" lon="4.43749">
        <ele>1008.2</ele>
        <time>2021-06-16T08:53:14Z</time>
      </trkpt>
      <trkpt lat="45.37503" lon="4.43761">
        <ele>1008.8</ele>
        <time>2021-06-16T08:53:19Z</time>
      </trkpt>
      <trkpt lat="45.37503" lon="4.43769">
        <ele>1009.2</ele>
        <time>2021-06-16T08:53:22Z</time>
      </trkpt>
      <trkpt lat="45.37504" lon="4.43773">
        <ele>1009.4</ele>
        <time>2021-06-16T08:53:24Z</time>
      </trkpt>
      <trkpt lat="45.37504" lon="4.43784">
        <ele>1009.8</ele>
        <time>2021-06-16T08:53:29Z</time>
      </trkpt>
      <trkpt lat="45.37504" lon="4.43788">
        <ele>1010</ele>
        <time>2021-06-16T08:53:32Z</time>
      </trkpt>
      <trkpt lat="45.37503" lon="4.43792">
        <ele>1010.2</ele>
        <time>2021-06-16T08:53:34Z</time>
      </trkpt>
      <trkpt lat="45.37504" lon="4.43814">
        <ele>1010.8</ele>
        <time>2021-06-16T08:53:43Z</time>
      </trkpt>
      <trkpt lat="45.37504" lon="4.43817">
        <ele>1011</ele>
        <time>2021-06-16T08:53:44Z</time>
      </trkpt>
      <trkpt lat="45.37503" lon="4.43822">
        <ele>1011</ele>
        <time>2021-06-16T08:53:46Z</time>
      </trkpt>
      <trkpt lat="45.37499" lon="4.43842">
        <ele>1011.2</ele>
        <time>2021-06-16T08:53:54Z</time>
      </trkpt>
      <trkpt lat="45.375" lon="4.43858">
        <ele>1011.6</ele>
        <time>2021-06-16T08:53:59Z</time>
      </trkpt>
      <trkpt lat="45.37502" lon="4.43869">
        <ele>1012</ele>
        <time>2021-06-16T08:54:04Z</time>
      </trkpt>
      <trkpt lat="45.37499" lon="4.43887">
        <ele>1012.6</ele>
        <time>2021-06-16T08:54:12Z</time>
      </trkpt>
      <trkpt lat="45.37497" lon="4.43904">
        <ele>1012.6</ele>
        <time>2021-06-16T08:54:19Z</time>
      </trkpt>
      <trkpt lat="45.37494" lon="4.43916">
        <ele>1012.8</ele>
        <time>2021-06-16T08:54:24Z</time>
      </trkpt>
      <trkpt lat="45.37493" lon="4.43919">
        <ele>1012.8</ele>
        <time>2021-06-16T08:54:25Z</time>
      </trkpt>
      <trkpt lat="45.37491" lon="4.43932">
        <ele>1013</ele>
        <time>2021-06-16T08:54:29Z</time>
      </trkpt>
      <trkpt lat="45.37491" lon="4.43939">
        <ele>1013.2</ele>
        <time>2021-06-16T08:54:31Z</time>
      </trkpt>
      <trkpt lat="45.37489" lon="4.43945">
        <ele>1013.4</ele>
        <time>2021-06-16T08:54:33Z</time>
      </trkpt>
      <trkpt lat="45.37487" lon="4.43952">
        <ele>1013.4</ele>
        <time>2021-06-16T08:54:35Z</time>
      </trkpt>
      <trkpt lat="45.37475" lon="4.43972">
        <ele>1013.4</ele>
        <time>2021-06-16T08:54:44Z</time>
      </trkpt>
      <trkpt lat="45.37469" lon="4.43986">
        <ele>1013.6</ele>
        <time>2021-06-16T08:54:51Z</time>
      </trkpt>
      <trkpt lat="45.37453" lon="4.44006">
        <ele>1014</ele>
        <time>2021-06-16T08:54:58Z</time>
      </trkpt>
      <trkpt lat="45.37444" lon="4.44013">
        <ele>1013.8</ele>
        <time>2021-06-16T08:55:02Z</time>
      </trkpt>
      <trkpt lat="45.37437" lon="4.44021">
        <ele>1013.4</ele>
        <time>2021-06-16T08:55:07Z</time>
      </trkpt>
      <trkpt lat="45.37422" lon="4.44034">
        <ele>1012.8</ele>
        <time>2021-06-16T08:55:13Z</time>
      </trkpt>
      <trkpt lat="45.37418" lon="4.44041">
        <ele>1012.8</ele>
        <time>2021-06-16T08:55:16Z</time>
      </trkpt>
      <trkpt lat="45.37412" lon="4.44042">
        <ele>1012.8</ele>
        <time>2021-06-16T08:55:18Z</time>
      </trkpt>
      <trkpt lat="45.374" lon="4.44044">
        <ele>1012</ele>
        <time>2021-06-16T08:55:24Z</time>
      </trkpt>
      <trkpt lat="45.37386" lon="4.44052">
        <ele>1011.4</ele>
        <time>2021-06-16T08:55:32Z</time>
      </trkpt>
      <trkpt lat="45.3738" lon="4.44055">
        <ele>1010.8</ele>
        <time>2021-06-16T08:55:36Z</time>
      </trkpt>
      <trkpt lat="45.37364" lon="4.44067">
        <ele>1010</ele>
        <time>2021-06-16T08:55:43Z</time>
      </trkpt>
      <trkpt lat="45.37362" lon="4.44068">
        <ele>1009.8</ele>
        <time>2021-06-16T08:55:44Z</time>
      </trkpt>
      <trkpt lat="45.37345" lon="4.44076">
        <ele>1008.8</ele>
        <time>2021-06-16T08:55:53Z</time>
      </trkpt>
      <trkpt lat="45.37327" lon="4.44082">
        <ele>1009.2</ele>
        <time>2021-06-16T08:56:02Z</time>
      </trkpt>
      <trkpt lat="45.37309" lon="4.44088">
        <ele>1009.8</ele>
        <time>2021-06-16T08:56:13Z</time>
      </trkpt>
      <trkpt lat="45.37297" lon="4.44092">
        <ele>1010.8</ele>
        <time>2021-06-16T08:56:20Z</time>
      </trkpt>
      <trkpt lat="45.37278" lon="4.44099">
        <ele>1011.6</ele>
        <time>2021-06-16T08:56:31Z</time>
      </trkpt>
      <trkpt lat="45.37275" lon="4.44101">
        <ele>1012</ele>
        <time>2021-06-16T08:56:33Z</time>
      </trkpt>
      <trkpt lat="45.37267" lon="4.44106">
        <ele>1012.6</ele>
        <time>2021-06-16T08:56:38Z</time>
      </trkpt>
      <trkpt lat="45.37261" lon="4.44107">
        <ele>1013</ele>
        <time>2021-06-16T08:56:42Z</time>
      </trkpt>
      <trkpt lat="45.37249" lon="4.44107">
        <ele>1013.6</ele>
        <time>2021-06-16T08:56:49Z</time>
      </trkpt>
      <trkpt lat="45.37246" lon="4.44105">
        <ele>1014.2</ele>
        <time>2021-06-16T08:56:51Z</time>
      </trkpt>
      <trkpt lat="45.37242" lon="4.44106">
        <ele>1014.6</ele>
        <time>2021-06-16T08:56:54Z</time>
      </trkpt>
      <trkpt lat="45.37233" lon="4.441">
        <ele>1015.2</ele>
        <time>2021-06-16T08:56:59Z</time>
      </trkpt>
      <trkpt lat="45.37228" lon="4.44105">
        <ele>1015.4</ele>
        <time>2021-06-16T08:57:01Z</time>
      </trkpt>
      <trkpt lat="45.37224" lon="4.44108">
        <ele>1015.6</ele>
        <time>2021-06-16T08:57:03Z</time>
      </trkpt>
      <trkpt lat="45.37215" lon="4.44111">
        <ele>1016.2</ele>
        <time>2021-06-16T08:57:08Z</time>
      </trkpt>
      <trkpt lat="45.37212" lon="4.44109">
        <ele>1016.2</ele>
        <time>2021-06-16T08:57:10Z</time>
      </trkpt>
      <trkpt lat="45.37199" lon="4.44101">
        <ele>1017.4</ele>
        <time>2021-06-16T08:57:20Z</time>
      </trkpt>
      <trkpt lat="45.3719" lon="4.44091">
        <ele>1018</ele>
        <time>2021-06-16T08:57:28Z</time>
      </trkpt>
      <trkpt lat="45.37187" lon="4.4409">
        <ele>1018.4</ele>
        <time>2021-06-16T08:57:30Z</time>
      </trkpt>
      <trkpt lat="45.37185" lon="4.44086">
        <ele>1018.8</ele>
        <time>2021-06-16T08:57:32Z</time>
      </trkpt>
      <trkpt lat="45.37179" lon="4.44078">
        <ele>1019.6</ele>
        <time>2021-06-16T08:57:37Z</time>
      </trkpt>
      <trkpt lat="45.37178" lon="4.44077">
        <ele>1019.6</ele>
        <time>2021-06-16T08:57:38Z</time>
      </trkpt>
      <trkpt lat="45.37165" lon="4.44062">
        <ele>1020.6</ele>
        <time>2021-06-16T08:57:47Z</time>
      </trkpt>
      <trkpt lat="45.37163" lon="4.44061">
        <ele>1020.6</ele>
        <time>2021-06-16T08:57:48Z</time>
      </trkpt>
      <trkpt lat="45.37152" lon="4.44047">
        <ele>1021.2</ele>
        <time>2021-06-16T08:57:56Z</time>
      </trkpt>
      <trkpt lat="45.37144" lon="4.44042">
        <ele>1021.8</ele>
        <time>2021-06-16T08:58:01Z</time>
      </trkpt>
      <trkpt lat="45.37125" lon="4.44045">
        <ele>1022</ele>
        <time>2021-06-16T08:58:09Z</time>
      </trkpt>
      <trkpt lat="45.37107" lon="4.4405">
        <ele>1022.8</ele>
        <time>2021-06-16T08:58:17Z</time>
      </trkpt>
      <trkpt lat="45.37088" lon="4.44057">
        <ele>1023.2</ele>
        <time>2021-06-16T08:58:25Z</time>
      </trkpt>
      <trkpt lat="45.37076" lon="4.44062">
        <ele>1023.8</ele>
        <time>2021-06-16T08:58:31Z</time>
      </trkpt>
      <trkpt lat="45.37068" lon="4.44068">
        <ele>1024</ele>
        <time>2021-06-16T08:58:37Z</time>
      </trkpt>
      <trkpt lat="45.37065" lon="4.44071">
        <ele>1024.2</ele>
        <time>2021-06-16T08:58:40Z</time>
      </trkpt>
      <trkpt lat="45.37058" lon="4.44075">
        <ele>1024.8</ele>
        <time>2021-06-16T08:58:44Z</time>
      </trkpt>
      <trkpt lat="45.37056" lon="4.44076">
        <ele>1025</ele>
        <time>2021-06-16T08:58:45Z</time>
      </trkpt>
      <trkpt lat="45.37046" lon="4.44084">
        <ele>1026</ele>
        <time>2021-06-16T08:58:52Z</time>
      </trkpt>
      <trkpt lat="45.37036" lon="4.44088">
        <ele>1027.2</ele>
        <time>2021-06-16T08:58:59Z</time>
      </trkpt>
      <trkpt lat="45.37026" lon="4.44086">
        <ele>1028.2</ele>
        <time>2021-06-16T08:59:07Z</time>
      </trkpt>
      <trkpt lat="45.37017" lon="4.44089">
        <ele>1028.8</ele>
        <time>2021-06-16T08:59:12Z</time>
      </trkpt>
      <trkpt lat="45.37012" lon="4.44092">
        <ele>1029.2</ele>
        <time>2021-06-16T08:59:15Z</time>
      </trkpt>
      <trkpt lat="45.36998" lon="4.44094">
        <ele>1030.4</ele>
        <time>2021-06-16T08:59:25Z</time>
      </trkpt>
      <trkpt lat="45.36987" lon="4.44097">
        <ele>1031.6</ele>
        <time>2021-06-16T08:59:32Z</time>
      </trkpt>
      <trkpt lat="45.36985" lon="4.44097">
        <ele>1031.8</ele>
        <time>2021-06-16T08:59:34Z</time>
      </trkpt>
      <trkpt lat="45.36976" lon="4.44097">
        <ele>1032.6</ele>
        <time>2021-06-16T08:59:41Z</time>
      </trkpt>
      <trkpt lat="45.36975" lon="4.44097">
        <ele>1032.8</ele>
        <time>2021-06-16T08:59:42Z</time>
      </trkpt>
      <trkpt lat="45.36968" lon="4.44095">
        <ele>1033.8</ele>
        <time>2021-06-16T08:59:47Z</time>
      </trkpt>
      <trkpt lat="45.36963" lon="4.44094">
        <ele>1034.2</ele>
        <time>2021-06-16T08:59:50Z</time>
      </trkpt>
      <trkpt lat="45.36958" lon="4.44091">
        <ele>1034.8</ele>
        <time>2021-06-16T08:59:53Z</time>
      </trkpt>
      <trkpt lat="45.36943" lon="4.44086">
        <ele>1035.8</ele>
        <time>2021-06-16T09:00:00Z</time>
      </trkpt>
      <trkpt lat="45.36935" lon="4.44082">
        <ele>1036.2</ele>
        <time>2021-06-16T09:00:04Z</time>
      </trkpt>
      <trkpt lat="45.36925" lon="4.44071">
        <ele>1036.8</ele>
        <time>2021-06-16T09:00:10Z</time>
      </trkpt>
      <trkpt lat="45.36915" lon="4.44058">
        <ele>1038</ele>
        <time>2021-06-16T09:00:18Z</time>
      </trkpt>
      <trkpt lat="45.36907" lon="4.44047">
        <ele>1038.4</ele>
        <time>2021-06-16T09:00:24Z</time>
      </trkpt>
      <trkpt lat="45.36903" lon="4.44042">
        <ele>1039.2</ele>
        <time>2021-06-16T09:00:27Z</time>
      </trkpt>
      <trkpt lat="45.36895" lon="4.44026">
        <ele>1040.2</ele>
        <time>2021-06-16T09:00:35Z</time>
      </trkpt>
      <trkpt lat="45.36889" lon="4.44014">
        <ele>1040.6</ele>
        <time>2021-06-16T09:00:42Z</time>
      </trkpt>
      <trkpt lat="45.36887" lon="4.44002">
        <ele>1041.2</ele>
        <time>2021-06-16T09:00:48Z</time>
      </trkpt>
      <trkpt lat="45.36885" lon="4.44001">
        <ele>1041.4</ele>
        <time>2021-06-16T09:00:49Z</time>
      </trkpt>
      <trkpt lat="45.36876" lon="4.43985">
        <ele>1042.2</ele>
        <time>2021-06-16T09:00:57Z</time>
      </trkpt>
      <trkpt lat="45.36876" lon="4.43982">
        <ele>1042.4</ele>
        <time>2021-06-16T09:00:58Z</time>
      </trkpt>
      <trkpt lat="45.36872" lon="4.43976">
        <ele>1042.8</ele>
        <time>2021-06-16T09:01:01Z</time>
      </trkpt>
      <trkpt lat="45.36872" lon="4.43971">
        <ele>1043</ele>
        <time>2021-06-16T09:01:03Z</time>
      </trkpt>
      <trkpt lat="45.36869" lon="4.43964">
        <ele>1043.4</ele>
        <time>2021-06-16T09:01:06Z</time>
      </trkpt>
      <trkpt lat="45.36868" lon="4.43957">
        <ele>1043.8</ele>
        <time>2021-06-16T09:01:09Z</time>
      </trkpt>
      <trkpt lat="45.36864" lon="4.43942">
        <ele>1044.2</ele>
        <time>2021-06-16T09:01:15Z</time>
      </trkpt>
      <trkpt lat="45.36863" lon="4.43937">
        <ele>1044.4</ele>
        <time>2021-06-16T09:01:17Z</time>
      </trkpt>
      <trkpt lat="45.36862" lon="4.43928">
        <ele>1045</ele>
        <time>2021-06-16T09:01:22Z</time>
      </trkpt>
      <trkpt lat="45.36862" lon="4.43926">
        <ele>1045.2</ele>
        <time>2021-06-16T09:01:23Z</time>
      </trkpt>
      <trkpt lat="45.36861" lon="4.43916">
        <ele>1045.6</ele>
        <time>2021-06-16T09:01:28Z</time>
      </trkpt>
      <trkpt lat="45.36861" lon="4.43911">
        <ele>1045.6</ele>
        <time>2021-06-16T09:01:30Z</time>
      </trkpt>
      <trkpt lat="45.36858" lon="4.43888">
        <ele>1046.4</ele>
        <time>2021-06-16T09:01:38Z</time>
      </trkpt>
      <trkpt lat="45.36858" lon="4.43884">
        <ele>1046.6</ele>
        <time>2021-06-16T09:01:40Z</time>
      </trkpt>
      <trkpt lat="45.36855" lon="4.43871">
        <ele>1047</ele>
        <time>2021-06-16T09:01:45Z</time>
      </trkpt>
      <trkpt lat="45.36856" lon="4.43864">
        <ele>1047.2</ele>
        <time>2021-06-16T09:01:48Z</time>
      </trkpt>
      <trkpt lat="45.36856" lon="4.43853">
        <ele>1047.6</ele>
        <time>2021-06-16T09:01:51Z</time>
      </trkpt>
      <trkpt lat="45.36856" lon="4.43844">
        <ele>1048</ele>
        <time>2021-06-16T09:01:54Z</time>
      </trkpt>
      <trkpt lat="45.36857" lon="4.43837">
        <ele>1048</ele>
        <time>2021-06-16T09:01:57Z</time>
      </trkpt>
      <trkpt lat="45.36859" lon="4.4383">
        <ele>1048.2</ele>
        <time>2021-06-16T09:02:00Z</time>
      </trkpt>
      <trkpt lat="45.36861" lon="4.43822">
        <ele>1048.4</ele>
        <time>2021-06-16T09:02:03Z</time>
      </trkpt>
      <trkpt lat="45.3686" lon="4.43816">
        <ele>1048.6</ele>
        <time>2021-06-16T09:02:05Z</time>
      </trkpt>
      <trkpt lat="45.36861" lon="4.43811">
        <ele>1049</ele>
        <time>2021-06-16T09:02:07Z</time>
      </trkpt>
      <trkpt lat="45.3686" lon="4.43799">
        <ele>1049.6</ele>
        <time>2021-06-16T09:02:12Z</time>
      </trkpt>
      <trkpt lat="45.3686" lon="4.43797">
        <ele>1049.8</ele>
        <time>2021-06-16T09:02:13Z</time>
      </trkpt>
      <trkpt lat="45.36859" lon="4.43795">
        <ele>1049.8</ele>
        <time>2021-06-16T09:02:14Z</time>
      </trkpt>
      <trkpt lat="45.3686" lon="4.43791">
        <ele>1050.2</ele>
        <time>2021-06-16T09:02:16Z</time>
      </trkpt>
      <trkpt lat="45.36857" lon="4.43776">
        <ele>1050.8</ele>
        <time>2021-06-16T09:02:22Z</time>
      </trkpt>
      <trkpt lat="45.36856" lon="4.43774">
        <ele>1050.8</ele>
        <time>2021-06-16T09:02:23Z</time>
      </trkpt>
      <trkpt lat="45.36853" lon="4.43766">
        <ele>1050.8</ele>
        <time>2021-06-16T09:02:25Z</time>
      </trkpt>
      <trkpt lat="45.36848" lon="4.43754">
        <ele>1051.2</ele>
        <time>2021-06-16T09:02:30Z</time>
      </trkpt>
      <trkpt lat="45.36838" lon="4.43731">
        <ele>1051.2</ele>
        <time>2021-06-16T09:02:41Z</time>
      </trkpt>
      <trkpt lat="45.36823" lon="4.43712">
        <ele>1050.4</ele>
        <time>2021-06-16T09:02:52Z</time>
      </trkpt>
      <trkpt lat="45.36817" lon="4.43703">
        <ele>1050</ele>
        <time>2021-06-16T09:02:57Z</time>
      </trkpt>
      <trkpt lat="45.36811" lon="4.43695">
        <ele>1050.2</ele>
        <time>2021-06-16T09:03:01Z</time>
      </trkpt>
      <trkpt lat="45.36802" lon="4.43689">
        <ele>1050.4</ele>
        <time>2021-06-16T09:03:07Z</time>
      </trkpt>
      <trkpt lat="45.36792" lon="4.43688">
        <ele>1050.4</ele>
        <time>2021-06-16T09:03:12Z</time>
      </trkpt>
      <trkpt lat="45.36779" lon="4.43676">
        <ele>1049.6</ele>
        <time>2021-06-16T09:03:20Z</time>
      </trkpt>
      <trkpt lat="45.3676" lon="4.43682">
        <ele>1049.4</ele>
        <time>2021-06-16T09:03:28Z</time>
      </trkpt>
      <trkpt lat="45.36745" lon="4.43699">
        <ele>1049.2</ele>
        <time>2021-06-16T09:03:38Z</time>
      </trkpt>
      <trkpt lat="45.3673" lon="4.43715">
        <ele>1049.8</ele>
        <time>2021-06-16T09:03:48Z</time>
      </trkpt>
      <trkpt lat="45.3672" lon="4.43725">
        <ele>1049.8</ele>
        <time>2021-06-16T09:03:55Z</time>
      </trkpt>
      <trkpt lat="45.36706" lon="4.43736">
        <ele>1050.2</ele>
        <time>2021-06-16T09:04:04Z</time>
      </trkpt>
      <trkpt lat="45.36703" lon="4.43737">
        <ele>1050.2</ele>
        <time>2021-06-16T09:04:06Z</time>
      </trkpt>
      <trkpt lat="45.36697" lon="4.43739">
        <ele>1050.2</ele>
        <time>2021-06-16T09:04:09Z</time>
      </trkpt>
      <trkpt lat="45.36696" lon="4.4374">
        <ele>1050.2</ele>
        <time>2021-06-16T09:04:10Z</time>
      </trkpt>
      <trkpt lat="45.36691" lon="4.43744">
        <ele>1050.4</ele>
        <time>2021-06-16T09:04:13Z</time>
      </trkpt>
      <trkpt lat="45.36685" lon="4.43752">
        <ele>1050.8</ele>
        <time>2021-06-16T09:04:18Z</time>
      </trkpt>
      <trkpt lat="45.36672" lon="4.43771">
        <ele>1051.4</ele>
        <time>2021-06-16T09:04:26Z</time>
      </trkpt>
      <trkpt lat="45.36668" lon="4.43776">
        <ele>1051.4</ele>
        <time>2021-06-16T09:04:30Z</time>
      </trkpt>
      <trkpt lat="45.36665" lon="4.43781">
        <ele>1051.6</ele>
        <time>2021-06-16T09:04:33Z</time>
      </trkpt>
      <trkpt lat="45.36663" lon="4.43784">
        <ele>1051.6</ele>
        <time>2021-06-16T09:04:35Z</time>
      </trkpt>
      <trkpt lat="45.3666" lon="4.43788">
        <ele>1051.8</ele>
        <time>2021-06-16T09:04:37Z</time>
      </trkpt>
      <trkpt lat="45.36647" lon="4.43806">
        <ele>1052.4</ele>
        <time>2021-06-16T09:04:46Z</time>
      </trkpt>
      <trkpt lat="45.36642" lon="4.43814">
        <ele>1052.8</ele>
        <time>2021-06-16T09:04:50Z</time>
      </trkpt>
      <trkpt lat="45.36641" lon="4.43817">
        <ele>1053</ele>
        <time>2021-06-16T09:04:51Z</time>
      </trkpt>
      <trkpt lat="45.3663" lon="4.43831">
        <ele>1053.8</ele>
        <time>2021-06-16T09:05:00Z</time>
      </trkpt>
      <trkpt lat="45.36628" lon="4.43833">
        <ele>1053.8</ele>
        <time>2021-06-16T09:05:01Z</time>
      </trkpt>
      <trkpt lat="45.36616" lon="4.43848">
        <ele>1055</ele>
        <time>2021-06-16T09:05:10Z</time>
      </trkpt>
      <trkpt lat="45.366" lon="4.43863">
        <ele>1055.2</ele>
        <time>2021-06-16T09:05:21Z</time>
      </trkpt>
      <trkpt lat="45.36597" lon="4.43869">
        <ele>1055.2</ele>
        <time>2021-06-16T09:05:23Z</time>
      </trkpt>
      <trkpt lat="45.36592" lon="4.43877">
        <ele>1055</ele>
        <time>2021-06-16T09:05:26Z</time>
      </trkpt>
      <trkpt lat="45.36586" lon="4.43889">
        <ele>1055</ele>
        <time>2021-06-16T09:05:30Z</time>
      </trkpt>
      <trkpt lat="45.3658" lon="4.43897">
        <ele>1054.6</ele>
        <time>2021-06-16T09:05:34Z</time>
      </trkpt>
      <trkpt lat="45.36577" lon="4.43902">
        <ele>1054.6</ele>
        <time>2021-06-16T09:05:36Z</time>
      </trkpt>
      <trkpt lat="45.36574" lon="4.43907">
        <ele>1054.6</ele>
        <time>2021-06-16T09:05:38Z</time>
      </trkpt>
      <trkpt lat="45.3656" lon="4.43922">
        <ele>1053.8</ele>
        <time>2021-06-16T09:05:46Z</time>
      </trkpt>
      <trkpt lat="45.36556" lon="4.43929">
        <ele>1053.8</ele>
        <time>2021-06-16T09:05:49Z</time>
      </trkpt>
      <trkpt lat="45.36553" lon="4.43934">
        <ele>1053.8</ele>
        <time>2021-06-16T09:05:51Z</time>
      </trkpt>
      <trkpt lat="45.3655" lon="4.43937">
        <ele>1053.8</ele>
        <time>2021-06-16T09:05:53Z</time>
      </trkpt>
      <trkpt lat="45.36533" lon="4.43946">
        <ele>1053</ele>
        <time>2021-06-16T09:06:02Z</time>
      </trkpt>
      <trkpt lat="45.36524" lon="4.43954">
        <ele>1052.8</ele>
        <time>2021-06-16T09:06:06Z</time>
      </trkpt>
      <trkpt lat="45.36508" lon="4.43965">
        <ele>1052</ele>
        <time>2021-06-16T09:06:15Z</time>
      </trkpt>
      <trkpt lat="45.36499" lon="4.43969">
        <ele>1051.8</ele>
        <time>2021-06-16T09:06:19Z</time>
      </trkpt>
      <trkpt lat="45.3649" lon="4.43973">
        <ele>1051.8</ele>
        <time>2021-06-16T09:06:23Z</time>
      </trkpt>
      <trkpt lat="45.36482" lon="4.43978">
        <ele>1051.8</ele>
        <time>2021-06-16T09:06:27Z</time>
      </trkpt>
      <trkpt lat="45.36467" lon="4.43989">
        <ele>1050.6</ele>
        <time>2021-06-16T09:06:36Z</time>
      </trkpt>
      <trkpt lat="45.36458" lon="4.44">
        <ele>1049.6</ele>
        <time>2021-06-16T09:06:41Z</time>
      </trkpt>
      <trkpt lat="45.36452" lon="4.44006">
        <ele>1049.2</ele>
        <time>2021-06-16T09:06:44Z</time>
      </trkpt>
      <trkpt lat="45.36449" lon="4.44008">
        <ele>1049</ele>
        <time>2021-06-16T09:06:45Z</time>
      </trkpt>
      <trkpt lat="45.36445" lon="4.44014">
        <ele>1048.8</ele>
        <time>2021-06-16T09:06:48Z</time>
      </trkpt>
      <trkpt lat="45.36444" lon="4.44015">
        <ele>1048.8</ele>
        <time>2021-06-16T09:06:49Z</time>
      </trkpt>
      <trkpt lat="45.36442" lon="4.44019">
        <ele>1048.8</ele>
        <time>2021-06-16T09:06:51Z</time>
      </trkpt>
      <trkpt lat="45.36436" lon="4.44027">
        <ele>1048.6</ele>
        <time>2021-06-16T09:06:56Z</time>
      </trkpt>
      <trkpt lat="45.3642" lon="4.44037">
        <ele>1047.6</ele>
        <time>2021-06-16T09:07:04Z</time>
      </trkpt>
      <trkpt lat="45.36404" lon="4.4405">
        <ele>1047</ele>
        <time>2021-06-16T09:07:12Z</time>
      </trkpt>
      <trkpt lat="45.36392" lon="4.44053">
        <ele>1046.6</ele>
        <time>2021-06-16T09:07:17Z</time>
      </trkpt>
      <trkpt lat="45.36388" lon="4.44055">
        <ele>1046.6</ele>
        <time>2021-06-16T09:07:19Z</time>
      </trkpt>
      <trkpt lat="45.36381" lon="4.4406">
        <ele>1046.8</ele>
        <time>2021-06-16T09:07:22Z</time>
      </trkpt>
      <trkpt lat="45.36372" lon="4.44067">
        <ele>1046.4</ele>
        <time>2021-06-16T09:07:26Z</time>
      </trkpt>
      <trkpt lat="45.36367" lon="4.4407">
        <ele>1046.6</ele>
        <time>2021-06-16T09:07:28Z</time>
      </trkpt>
      <trkpt lat="45.3635" lon="4.44081">
        <ele>1046</ele>
        <time>2021-06-16T09:07:36Z</time>
      </trkpt>
      <trkpt lat="45.36336" lon="4.44092">
        <ele>1045.4</ele>
        <time>2021-06-16T09:07:44Z</time>
      </trkpt>
      <trkpt lat="45.36325" lon="4.4411">
        <ele>1045.4</ele>
        <time>2021-06-16T09:07:51Z</time>
      </trkpt>
      <trkpt lat="45.36318" lon="4.44124">
        <ele>1045.2</ele>
        <time>2021-06-16T09:07:56Z</time>
      </trkpt>
      <trkpt lat="45.36306" lon="4.44137">
        <ele>1045.4</ele>
        <time>2021-06-16T09:08:03Z</time>
      </trkpt>
      <trkpt lat="45.3629" lon="4.44148">
        <ele>1045.6</ele>
        <time>2021-06-16T09:08:12Z</time>
      </trkpt>
      <trkpt lat="45.36288" lon="4.4415">
        <ele>1045.6</ele>
        <time>2021-06-16T09:08:13Z</time>
      </trkpt>
      <trkpt lat="45.36277" lon="4.44156">
        <ele>1045.6</ele>
        <time>2021-06-16T09:08:20Z</time>
      </trkpt>
      <trkpt lat="45.36257" lon="4.44162">
        <ele>1045.8</ele>
        <time>2021-06-16T09:08:30Z</time>
      </trkpt>
      <trkpt lat="45.36255" lon="4.44162">
        <ele>1045.8</ele>
        <time>2021-06-16T09:08:31Z</time>
      </trkpt>
      <trkpt lat="45.36253" lon="4.44163">
        <ele>1045.8</ele>
        <time>2021-06-16T09:08:32Z</time>
      </trkpt>
      <trkpt lat="45.3624" lon="4.44168">
        <ele>1045.6</ele>
        <time>2021-06-16T09:08:38Z</time>
      </trkpt>
      <trkpt lat="45.36235" lon="4.44168">
        <ele>1045.6</ele>
        <time>2021-06-16T09:08:40Z</time>
      </trkpt>
      <trkpt lat="45.36232" lon="4.44169">
        <ele>1045.6</ele>
        <time>2021-06-16T09:08:41Z</time>
      </trkpt>
      <trkpt lat="45.36227" lon="4.44171">
        <ele>1045.6</ele>
        <time>2021-06-16T09:08:43Z</time>
      </trkpt>
      <trkpt lat="45.36208" lon="4.44172">
        <ele>1045.4</ele>
        <time>2021-06-16T09:08:54Z</time>
      </trkpt>
      <trkpt lat="45.36191" lon="4.44175">
        <ele>1046.4</ele>
        <time>2021-06-16T09:09:05Z</time>
      </trkpt>
      <trkpt lat="45.3619" lon="4.44176">
        <ele>1046.6</ele>
        <time>2021-06-16T09:09:06Z</time>
      </trkpt>
      <trkpt lat="45.36187" lon="4.44185">
        <ele>1046.8</ele>
        <time>2021-06-16T09:09:10Z</time>
      </trkpt>
      <trkpt lat="45.36182" lon="4.44195">
        <ele>1046.2</ele>
        <time>2021-06-16T09:09:15Z</time>
      </trkpt>
      <trkpt lat="45.36177" lon="4.44212">
        <ele>1045.8</ele>
        <time>2021-06-16T09:09:23Z</time>
      </trkpt>
      <trkpt lat="45.36172" lon="4.4422">
        <ele>1045.8</ele>
        <time>2021-06-16T09:09:26Z</time>
      </trkpt>
      <trkpt lat="45.36171" lon="4.44223">
        <ele>1045.8</ele>
        <time>2021-06-16T09:09:27Z</time>
      </trkpt>
      <trkpt lat="45.36168" lon="4.44237">
        <ele>1045.6</ele>
        <time>2021-06-16T09:09:31Z</time>
      </trkpt>
      <trkpt lat="45.36164" lon="4.44263">
        <ele>1045</ele>
        <time>2021-06-16T09:09:40Z</time>
      </trkpt>
      <trkpt lat="45.36164" lon="4.44268">
        <ele>1044.8</ele>
        <time>2021-06-16T09:09:42Z</time>
      </trkpt>
      <trkpt lat="45.36165" lon="4.44271">
        <ele>1044.8</ele>
        <time>2021-06-16T09:09:43Z</time>
      </trkpt>
      <trkpt lat="45.36164" lon="4.44274">
        <ele>1044.6</ele>
        <time>2021-06-16T09:09:44Z</time>
      </trkpt>
      <trkpt lat="45.36164" lon="4.44276">
        <ele>1044.6</ele>
        <time>2021-06-16T09:09:45Z</time>
      </trkpt>
      <trkpt lat="45.36164" lon="4.44279">
        <ele>1044.4</ele>
        <time>2021-06-16T09:09:46Z</time>
      </trkpt>
      <trkpt lat="45.36164" lon="4.44289">
        <ele>1044.2</ele>
        <time>2021-06-16T09:09:49Z</time>
      </trkpt>
      <trkpt lat="45.36165" lon="4.44306">
        <ele>1044</ele>
        <time>2021-06-16T09:09:53Z</time>
      </trkpt>
      <trkpt lat="45.36177" lon="4.44332">
        <ele>1044.2</ele>
        <time>2021-06-16T09:10:00Z</time>
      </trkpt>
      <trkpt lat="45.36183" lon="4.44349">
        <ele>1044.2</ele>
        <time>2021-06-16T09:10:05Z</time>
      </trkpt>
      <trkpt lat="45.36193" lon="4.44371">
        <ele>1044.2</ele>
        <time>2021-06-16T09:10:13Z</time>
      </trkpt>
      <trkpt lat="45.36202" lon="4.44393">
        <ele>1044.8</ele>
        <time>2021-06-16T09:10:24Z</time>
      </trkpt>
      <trkpt lat="45.36206" lon="4.444">
        <ele>1045.2</ele>
        <time>2021-06-16T09:10:29Z</time>
      </trkpt>
      <trkpt lat="45.36209" lon="4.4441">
        <ele>1045.4</ele>
        <time>2021-06-16T09:10:34Z</time>
      </trkpt>
      <trkpt lat="45.3621" lon="4.44412">
        <ele>1045.6</ele>
        <time>2021-06-16T09:10:35Z</time>
      </trkpt>
      <trkpt lat="45.36211" lon="4.44415">
        <ele>1045.6</ele>
        <time>2021-06-16T09:10:37Z</time>
      </trkpt>
      <trkpt lat="45.36216" lon="4.44443">
        <ele>1046.2</ele>
        <time>2021-06-16T09:10:48Z</time>
      </trkpt>
      <trkpt lat="45.36217" lon="4.44458">
        <ele>1046.6</ele>
        <time>2021-06-16T09:10:53Z</time>
      </trkpt>
      <trkpt lat="45.36219" lon="4.44483">
        <ele>1047.6</ele>
        <time>2021-06-16T09:11:02Z</time>
      </trkpt>
      <trkpt lat="45.36219" lon="4.44486">
        <ele>1047.6</ele>
        <time>2021-06-16T09:11:03Z</time>
      </trkpt>
      <trkpt lat="45.3622" lon="4.44513">
        <ele>1048.6</ele>
        <time>2021-06-16T09:11:13Z</time>
      </trkpt>
      <trkpt lat="45.3622" lon="4.44518">
        <ele>1048.6</ele>
        <time>2021-06-16T09:11:15Z</time>
      </trkpt>
      <trkpt lat="45.36219" lon="4.44539">
        <ele>1049.6</ele>
        <time>2021-06-16T09:11:24Z</time>
      </trkpt>
      <trkpt lat="45.36219" lon="4.44553">
        <ele>1050.8</ele>
        <time>2021-06-16T09:11:30Z</time>
      </trkpt>
      <trkpt lat="45.36219" lon="4.4457">
        <ele>1051.8</ele>
        <time>2021-06-16T09:11:38Z</time>
      </trkpt>
      <trkpt lat="45.36222" lon="4.44598">
        <ele>1052.8</ele>
        <time>2021-06-16T09:11:50Z</time>
      </trkpt>
      <trkpt lat="45.36223" lon="4.446">
        <ele>1053</ele>
        <time>2021-06-16T09:11:51Z</time>
      </trkpt>
      <trkpt lat="45.36223" lon="4.44616">
        <ele>1054</ele>
        <time>2021-06-16T09:11:57Z</time>
      </trkpt>
      <trkpt lat="45.36218" lon="4.44642">
        <ele>1054.8</ele>
        <time>2021-06-16T09:12:08Z</time>
      </trkpt>
      <trkpt lat="45.36209" lon="4.44666">
        <ele>1054</ele>
        <time>2021-06-16T09:12:18Z</time>
      </trkpt>
      <trkpt lat="45.36201" lon="4.44679">
        <ele>1053.6</ele>
        <time>2021-06-16T09:12:25Z</time>
      </trkpt>
      <trkpt lat="45.36197" lon="4.44687">
        <ele>1053.8</ele>
        <time>2021-06-16T09:12:29Z</time>
      </trkpt>
      <trkpt lat="45.36182" lon="4.44704">
        <ele>1053.6</ele>
        <time>2021-06-16T09:12:41Z</time>
      </trkpt>
      <trkpt lat="45.36169" lon="4.44709">
        <ele>1052.8</ele>
        <time>2021-06-16T09:12:50Z</time>
      </trkpt>
      <trkpt lat="45.3616" lon="4.44711">
        <ele>1052.4</ele>
        <time>2021-06-16T09:12:55Z</time>
      </trkpt>
      <trkpt lat="45.36159" lon="4.44711">
        <ele>1052.2</ele>
        <time>2021-06-16T09:12:56Z</time>
      </trkpt>
      <trkpt lat="45.36146" lon="4.44717">
        <ele>1051.8</ele>
        <time>2021-06-16T09:13:03Z</time>
      </trkpt>
      <trkpt lat="45.36137" lon="4.44726">
        <ele>1051.4</ele>
        <time>2021-06-16T09:13:08Z</time>
      </trkpt>
      <trkpt lat="45.3613" lon="4.44729">
        <ele>1051.4</ele>
        <time>2021-06-16T09:13:11Z</time>
      </trkpt>
      <trkpt lat="45.36111" lon="4.44737">
        <ele>1050.8</ele>
        <time>2021-06-16T09:13:20Z</time>
      </trkpt>
      <trkpt lat="45.36109" lon="4.44738">
        <ele>1050.8</ele>
        <time>2021-06-16T09:13:21Z</time>
      </trkpt>
      <trkpt lat="45.36095" lon="4.44754">
        <ele>1050.8</ele>
        <time>2021-06-16T09:13:29Z</time>
      </trkpt>
      <trkpt lat="45.36081" lon="4.44775">
        <ele>1050.6</ele>
        <time>2021-06-16T09:13:38Z</time>
      </trkpt>
      <trkpt lat="45.36075" lon="4.44799">
        <ele>1051.4</ele>
        <time>2021-06-16T09:13:46Z</time>
      </trkpt>
      <trkpt lat="45.36075" lon="4.44808">
        <ele>1051.4</ele>
        <time>2021-06-16T09:13:48Z</time>
      </trkpt>
      <trkpt lat="45.36079" lon="4.44833">
        <ele>1051.6</ele>
        <time>2021-06-16T09:13:56Z</time>
      </trkpt>
      <trkpt lat="45.36079" lon="4.44861">
        <ele>1051.6</ele>
        <time>2021-06-16T09:14:06Z</time>
      </trkpt>
      <trkpt lat="45.36079" lon="4.4487">
        <ele>1051.8</ele>
        <time>2021-06-16T09:14:09Z</time>
      </trkpt>
      <trkpt lat="45.36074" lon="4.44896">
        <ele>1052.8</ele>
        <time>2021-06-16T09:14:19Z</time>
      </trkpt>
      <trkpt lat="45.36073" lon="4.44901">
        <ele>1052.8</ele>
        <time>2021-06-16T09:14:21Z</time>
      </trkpt>
      <trkpt lat="45.36072" lon="4.44909">
        <ele>1053.2</ele>
        <time>2021-06-16T09:14:24Z</time>
      </trkpt>
      <trkpt lat="45.36071" lon="4.44919">
        <ele>1054</ele>
        <time>2021-06-16T09:14:28Z</time>
      </trkpt>
      <trkpt lat="45.36075" lon="4.44938">
        <ele>1055</ele>
        <time>2021-06-16T09:14:36Z</time>
      </trkpt>
      <trkpt lat="45.36093" lon="4.44945">
        <ele>1055.8</ele>
        <time>2021-06-16T09:14:48Z</time>
      </trkpt>
      <trkpt lat="45.36112" lon="4.44953">
        <ele>1056</ele>
        <time>2021-06-16T09:14:58Z</time>
      </trkpt>
      <trkpt lat="45.36129" lon="4.44964">
        <ele>1056</ele>
        <time>2021-06-16T09:15:08Z</time>
      </trkpt>
      <trkpt lat="45.36147" lon="4.44974">
        <ele>1056</ele>
        <time>2021-06-16T09:15:18Z</time>
      </trkpt>
      <trkpt lat="45.36151" lon="4.44976">
        <ele>1056</ele>
        <time>2021-06-16T09:15:20Z</time>
      </trkpt>
      <trkpt lat="45.36164" lon="4.44986">
        <ele>1056.6</ele>
        <time>2021-06-16T09:15:27Z</time>
      </trkpt>
      <trkpt lat="45.3618" lon="4.45001">
        <ele>1057</ele>
        <time>2021-06-16T09:15:37Z</time>
      </trkpt>
      <trkpt lat="45.36181" lon="4.45003">
        <ele>1057</ele>
        <time>2021-06-16T09:15:38Z</time>
      </trkpt>
      <trkpt lat="45.36197" lon="4.4502">
        <ele>1057.8</ele>
        <time>2021-06-16T09:15:48Z</time>
      </trkpt>
      <trkpt lat="45.36206" lon="4.45029">
        <ele>1058</ele>
        <time>2021-06-16T09:15:54Z</time>
      </trkpt>
      <trkpt lat="45.36222" lon="4.45045">
        <ele>1058</ele>
        <time>2021-06-16T09:16:03Z</time>
      </trkpt>
      <trkpt lat="45.36236" lon="4.45061">
        <ele>1057.8</ele>
        <time>2021-06-16T09:16:12Z</time>
      </trkpt>
      <trkpt lat="45.36251" lon="4.45078">
        <ele>1057.2</ele>
        <time>2021-06-16T09:16:21Z</time>
      </trkpt>
      <trkpt lat="45.36253" lon="4.4508">
        <ele>1057</ele>
        <time>2021-06-16T09:16:22Z</time>
      </trkpt>
      <trkpt lat="45.36264" lon="4.45096">
        <ele>1055.8</ele>
        <time>2021-06-16T09:16:29Z</time>
      </trkpt>
      <trkpt lat="45.36276" lon="4.45114">
        <ele>1054.8</ele>
        <time>2021-06-16T09:16:37Z</time>
      </trkpt>
      <trkpt lat="45.36288" lon="4.45136">
        <ele>1053.8</ele>
        <time>2021-06-16T09:16:46Z</time>
      </trkpt>
      <trkpt lat="45.36299" lon="4.45156">
        <ele>1052.8</ele>
        <time>2021-06-16T09:16:54Z</time>
      </trkpt>
      <trkpt lat="45.3631" lon="4.45178">
        <ele>1051.8</ele>
        <time>2021-06-16T09:17:03Z</time>
      </trkpt>
      <trkpt lat="45.3631" lon="4.4518">
        <ele>1051.6</ele>
        <time>2021-06-16T09:17:04Z</time>
      </trkpt>
      <trkpt lat="45.36312" lon="4.45186">
        <ele>1051.6</ele>
        <time>2021-06-16T09:17:06Z</time>
      </trkpt>
      <trkpt lat="45.36313" lon="4.45195">
        <ele>1051.2</ele>
        <time>2021-06-16T09:17:09Z</time>
      </trkpt>
      <trkpt lat="45.36316" lon="4.45209">
        <ele>1050.6</ele>
        <time>2021-06-16T09:17:14Z</time>
      </trkpt>
      <trkpt lat="45.36321" lon="4.45234">
        <ele>1049.6</ele>
        <time>2021-06-16T09:17:22Z</time>
      </trkpt>
      <trkpt lat="45.36322" lon="4.45237">
        <ele>1049.6</ele>
        <time>2021-06-16T09:17:23Z</time>
      </trkpt>
      <trkpt lat="45.36329" lon="4.45263">
        <ele>1049.2</ele>
        <time>2021-06-16T09:17:31Z</time>
      </trkpt>
      <trkpt lat="45.36335" lon="4.45288">
        <ele>1048.6</ele>
        <time>2021-06-16T09:17:39Z</time>
      </trkpt>
      <trkpt lat="45.36338" lon="4.45303">
        <ele>1048.6</ele>
        <time>2021-06-16T09:17:44Z</time>
      </trkpt>
      <trkpt lat="45.36341" lon="4.45329">
        <ele>1048.4</ele>
        <time>2021-06-16T09:17:53Z</time>
      </trkpt>
      <trkpt lat="45.36355" lon="4.45344">
        <ele>1048.4</ele>
        <time>2021-06-16T09:18:04Z</time>
      </trkpt>
      <trkpt lat="45.36372" lon="4.45335">
        <ele>1047.6</ele>
        <time>2021-06-16T09:18:15Z</time>
      </trkpt>
      <trkpt lat="45.36378" lon="4.45332">
        <ele>1047.6</ele>
        <time>2021-06-16T09:18:18Z</time>
      </trkpt>
      <trkpt lat="45.36389" lon="4.45327">
        <ele>1047.4</ele>
        <time>2021-06-16T09:18:24Z</time>
      </trkpt>
      <trkpt lat="45.36405" lon="4.45323">
        <ele>1046.6</ele>
        <time>2021-06-16T09:18:32Z</time>
      </trkpt>
      <trkpt lat="45.36407" lon="4.45323">
        <ele>1046.4</ele>
        <time>2021-06-16T09:18:33Z</time>
      </trkpt>
      <trkpt lat="45.36415" lon="4.45322">
        <ele>1046.2</ele>
        <time>2021-06-16T09:18:37Z</time>
      </trkpt>
      <trkpt lat="45.36434" lon="4.45323">
        <ele>1045.8</ele>
        <time>2021-06-16T09:18:44Z</time>
      </trkpt>
      <trkpt lat="45.36448" lon="4.45324">
        <ele>1045.4</ele>
        <time>2021-06-16T09:18:49Z</time>
      </trkpt>
      <trkpt lat="45.36465" lon="4.45325">
        <ele>1044.6</ele>
        <time>2021-06-16T09:18:56Z</time>
      </trkpt>
      <trkpt lat="45.36474" lon="4.45327">
        <ele>1044.2</ele>
        <time>2021-06-16T09:19:00Z</time>
      </trkpt>
      <trkpt lat="45.36486" lon="4.45329">
        <ele>1043.6</ele>
        <time>2021-06-16T09:19:05Z</time>
      </trkpt>
      <trkpt lat="45.36498" lon="4.45333">
        <ele>1043</ele>
        <time>2021-06-16T09:19:12Z</time>
      </trkpt>
      <trkpt lat="45.3652" lon="4.45335">
        <ele>1043.4</ele>
        <time>2021-06-16T09:19:20Z</time>
      </trkpt>
      <trkpt lat="45.3654" lon="4.45336">
        <ele>1043</ele>
        <time>2021-06-16T09:19:29Z</time>
      </trkpt>
      <trkpt lat="45.36559" lon="4.45339">
        <ele>1042.4</ele>
        <time>2021-06-16T09:19:37Z</time>
      </trkpt>
      <trkpt lat="45.36572" lon="4.45343">
        <ele>1042</ele>
        <time>2021-06-16T09:19:43Z</time>
      </trkpt>
      <trkpt lat="45.36588" lon="4.45354">
        <ele>1041.4</ele>
        <time>2021-06-16T09:19:51Z</time>
      </trkpt>
      <trkpt lat="45.36597" lon="4.45356">
        <ele>1041</ele>
        <time>2021-06-16T09:19:55Z</time>
      </trkpt>
      <trkpt lat="45.36611" lon="4.45358">
        <ele>1040.4</ele>
        <time>2021-06-16T09:20:01Z</time>
      </trkpt>
      <trkpt lat="45.3663" lon="4.45358">
        <ele>1040.2</ele>
        <time>2021-06-16T09:20:09Z</time>
      </trkpt>
      <trkpt lat="45.36639" lon="4.45359">
        <ele>1039.8</ele>
        <time>2021-06-16T09:20:13Z</time>
      </trkpt>
      <trkpt lat="45.36658" lon="4.4536">
        <ele>1039.6</ele>
        <time>2021-06-16T09:20:22Z</time>
      </trkpt>
      <trkpt lat="45.36675" lon="4.45359">
        <ele>1038.8</ele>
        <time>2021-06-16T09:20:29Z</time>
      </trkpt>
      <trkpt lat="45.36694" lon="4.45357">
        <ele>1038</ele>
        <time>2021-06-16T09:20:37Z</time>
      </trkpt>
      <trkpt lat="45.36698" lon="4.45356">
        <ele>1037.6</ele>
        <time>2021-06-16T09:20:39Z</time>
      </trkpt>
      <trkpt lat="45.36718" lon="4.45354">
        <ele>1036.6</ele>
        <time>2021-06-16T09:20:48Z</time>
      </trkpt>
      <trkpt lat="45.36726" lon="4.45351">
        <ele>1036.6</ele>
        <time>2021-06-16T09:20:51Z</time>
      </trkpt>
      <trkpt lat="45.36738" lon="4.45348">
        <ele>1036</ele>
        <time>2021-06-16T09:20:56Z</time>
      </trkpt>
      <trkpt lat="45.36747" lon="4.45346">
        <ele>1035.8</ele>
        <time>2021-06-16T09:21:00Z</time>
      </trkpt>
      <trkpt lat="45.36756" lon="4.45353">
        <ele>1035.6</ele>
        <time>2021-06-16T09:21:05Z</time>
      </trkpt>
      <trkpt lat="45.36755" lon="4.45354">
        <ele>1035.6</ele>
        <time>2021-06-16T09:21:06Z</time>
      </trkpt>
      <trkpt lat="45.36756" lon="4.45358">
        <ele>1035.6</ele>
        <time>2021-06-16T09:21:08Z</time>
      </trkpt>
      <trkpt lat="45.36765" lon="4.45366">
        <ele>1035.8</ele>
        <time>2021-06-16T09:21:15Z</time>
      </trkpt>
      <trkpt lat="45.36773" lon="4.45365">
        <ele>1036</ele>
        <time>2021-06-16T09:21:19Z</time>
      </trkpt>
      <trkpt lat="45.36783" lon="4.45364">
        <ele>1036</ele>
        <time>2021-06-16T09:21:24Z</time>
      </trkpt>
      <trkpt lat="45.36797" lon="4.45364">
        <ele>1036.2</ele>
        <time>2021-06-16T09:21:32Z</time>
      </trkpt>
      <trkpt lat="45.36813" lon="4.45354">
        <ele>1036.2</ele>
        <time>2021-06-16T09:21:42Z</time>
      </trkpt>
      <trkpt lat="45.36817" lon="4.45351">
        <ele>1036.2</ele>
        <time>2021-06-16T09:21:44Z</time>
      </trkpt>
      <trkpt lat="45.36819" lon="4.4535">
        <ele>1036.2</ele>
        <time>2021-06-16T09:21:45Z</time>
      </trkpt>
      <trkpt lat="45.36823" lon="4.45347">
        <ele>1036.8</ele>
        <time>2021-06-16T09:21:48Z</time>
      </trkpt>
      <trkpt lat="45.36836" lon="4.4534">
        <ele>1037.4</ele>
        <time>2021-06-16T09:21:57Z</time>
      </trkpt>
      <trkpt lat="45.36844" lon="4.45333">
        <ele>1037.8</ele>
        <time>2021-06-16T09:22:03Z</time>
      </trkpt>
      <trkpt lat="45.36848" lon="4.45325">
        <ele>1038.2</ele>
        <time>2021-06-16T09:22:07Z</time>
      </trkpt>
      <trkpt lat="45.36858" lon="4.45312">
        <ele>1038.8</ele>
        <time>2021-06-16T09:22:15Z</time>
      </trkpt>
      <trkpt lat="45.36873" lon="4.45301">
        <ele>1039.8</ele>
        <time>2021-06-16T09:22:25Z</time>
      </trkpt>
      <trkpt lat="45.36882" lon="4.45295">
        <ele>1040.4</ele>
        <time>2021-06-16T09:22:32Z</time>
      </trkpt>
      <trkpt lat="45.36883" lon="4.45291">
        <ele>1040.4</ele>
        <time>2021-06-16T09:22:35Z</time>
      </trkpt>
      <trkpt lat="45.36887" lon="4.45281">
        <ele>1040.8</ele>
        <time>2021-06-16T09:22:41Z</time>
      </trkpt>
      <trkpt lat="45.36888" lon="4.45279">
        <ele>1040.8</ele>
        <time>2021-06-16T09:22:42Z</time>
      </trkpt>
      <trkpt lat="45.369" lon="4.45262">
        <ele>1041</ele>
        <time>2021-06-16T09:22:51Z</time>
      </trkpt>
      <trkpt lat="45.36915" lon="4.45249">
        <ele>1041.4</ele>
        <time>2021-06-16T09:23:00Z</time>
      </trkpt>
      <trkpt lat="45.36916" lon="4.45247">
        <ele>1041.4</ele>
        <time>2021-06-16T09:23:01Z</time>
      </trkpt>
      <trkpt lat="45.3692" lon="4.45245">
        <ele>1041.4</ele>
        <time>2021-06-16T09:23:03Z</time>
      </trkpt>
      <trkpt lat="45.36922" lon="4.45245">
        <ele>1041.4</ele>
        <time>2021-06-16T09:23:04Z</time>
      </trkpt>
      <trkpt lat="45.36928" lon="4.45238">
        <ele>1041.4</ele>
        <time>2021-06-16T09:23:08Z</time>
      </trkpt>
      <trkpt lat="45.36944" lon="4.45222">
        <ele>1041.2</ele>
        <time>2021-06-16T09:23:15Z</time>
      </trkpt>
      <trkpt lat="45.36956" lon="4.45212">
        <ele>1041</ele>
        <time>2021-06-16T09:23:22Z</time>
      </trkpt>
      <trkpt lat="45.3696" lon="4.4521">
        <ele>1041</ele>
        <time>2021-06-16T09:23:24Z</time>
      </trkpt>
      <trkpt lat="45.36975" lon="4.45197">
        <ele>1041.2</ele>
        <time>2021-06-16T09:23:32Z</time>
      </trkpt>
      <trkpt lat="45.36991" lon="4.45185">
        <ele>1041.8</ele>
        <time>2021-06-16T09:23:41Z</time>
      </trkpt>
      <trkpt lat="45.36995" lon="4.45183">
        <ele>1041.8</ele>
        <time>2021-06-16T09:23:43Z</time>
      </trkpt>
      <trkpt lat="45.37005" lon="4.45177">
        <ele>1042.4</ele>
        <time>2021-06-16T09:23:49Z</time>
      </trkpt>
      <trkpt lat="45.3701" lon="4.45175">
        <ele>1042.4</ele>
        <time>2021-06-16T09:23:52Z</time>
      </trkpt>
      <trkpt lat="45.37012" lon="4.45174">
        <ele>1042.4</ele>
        <time>2021-06-16T09:23:53Z</time>
      </trkpt>
      <trkpt lat="45.37029" lon="4.45163">
        <ele>1042</ele>
        <time>2021-06-16T09:24:01Z</time>
      </trkpt>
      <trkpt lat="45.37036" lon="4.45159">
        <ele>1041.2</ele>
        <time>2021-06-16T09:24:04Z</time>
      </trkpt>
      <trkpt lat="45.3704" lon="4.45157">
        <ele>1040.8</ele>
        <time>2021-06-16T09:24:06Z</time>
      </trkpt>
      <trkpt lat="45.37055" lon="4.45145">
        <ele>1040.2</ele>
        <time>2021-06-16T09:24:14Z</time>
      </trkpt>
      <trkpt lat="45.37071" lon="4.45131">
        <ele>1040.2</ele>
        <time>2021-06-16T09:24:23Z</time>
      </trkpt>
      <trkpt lat="45.37087" lon="4.45122">
        <ele>1040.6</ele>
        <time>2021-06-16T09:24:31Z</time>
      </trkpt>
      <trkpt lat="45.371" lon="4.45111">
        <ele>1040.6</ele>
        <time>2021-06-16T09:24:40Z</time>
      </trkpt>
      <trkpt lat="45.37112" lon="4.45095">
        <ele>1039.8</ele>
        <time>2021-06-16T09:24:50Z</time>
      </trkpt>
      <trkpt lat="45.37127" lon="4.45085">
        <ele>1039.4</ele>
        <time>2021-06-16T09:24:57Z</time>
      </trkpt>
      <trkpt lat="45.37136" lon="4.45075">
        <ele>1039.2</ele>
        <time>2021-06-16T09:25:03Z</time>
      </trkpt>
      <trkpt lat="45.37147" lon="4.45064">
        <ele>1038.6</ele>
        <time>2021-06-16T09:25:09Z</time>
      </trkpt>
      <trkpt lat="45.37163" lon="4.45049">
        <ele>1038.2</ele>
        <time>2021-06-16T09:25:17Z</time>
      </trkpt>
      <trkpt lat="45.37176" lon="4.45041">
        <ele>1037.6</ele>
        <time>2021-06-16T09:25:24Z</time>
      </trkpt>
      <trkpt lat="45.37183" lon="4.45037">
        <ele>1037.2</ele>
        <time>2021-06-16T09:25:28Z</time>
      </trkpt>
      <trkpt lat="45.37199" lon="4.45028">
        <ele>1036.6</ele>
        <time>2021-06-16T09:25:36Z</time>
      </trkpt>
      <trkpt lat="45.37214" lon="4.45014">
        <ele>1035.8</ele>
        <time>2021-06-16T09:25:44Z</time>
      </trkpt>
      <trkpt lat="45.37216" lon="4.45011">
        <ele>1035.4</ele>
        <time>2021-06-16T09:25:45Z</time>
      </trkpt>
      <trkpt lat="45.3722" lon="4.45006">
        <ele>1035</ele>
        <time>2021-06-16T09:25:47Z</time>
      </trkpt>
      <trkpt lat="45.37234" lon="4.44995">
        <ele>1034.4</ele>
        <time>2021-06-16T09:25:54Z</time>
      </trkpt>
      <trkpt lat="45.37248" lon="4.44984">
        <ele>1033.2</ele>
        <time>2021-06-16T09:26:03Z</time>
      </trkpt>
      <trkpt lat="45.37258" lon="4.44976">
        <ele>1032.8</ele>
        <time>2021-06-16T09:26:07Z</time>
      </trkpt>
      <trkpt lat="45.37264" lon="4.44969">
        <ele>1033</ele>
        <time>2021-06-16T09:26:10Z</time>
      </trkpt>
      <trkpt lat="45.37266" lon="4.44968">
        <ele>1033.2</ele>
        <time>2021-06-16T09:26:11Z</time>
      </trkpt>
      <trkpt lat="45.37282" lon="4.44954">
        <ele>1032.4</ele>
        <time>2021-06-16T09:26:21Z</time>
      </trkpt>
      <trkpt lat="45.37289" lon="4.44943">
        <ele>1032</ele>
        <time>2021-06-16T09:26:25Z</time>
      </trkpt>
      <trkpt lat="45.37294" lon="4.44937">
        <ele>1032</ele>
        <time>2021-06-16T09:26:28Z</time>
      </trkpt>
      <trkpt lat="45.37304" lon="4.44929">
        <ele>1031.6</ele>
        <time>2021-06-16T09:26:33Z</time>
      </trkpt>
      <trkpt lat="45.37309" lon="4.44924">
        <ele>1031.2</ele>
        <time>2021-06-16T09:26:36Z</time>
      </trkpt>
      <trkpt lat="45.37313" lon="4.44923">
        <ele>1031</ele>
        <time>2021-06-16T09:26:38Z</time>
      </trkpt>
      <trkpt lat="45.37333" lon="4.44919">
        <ele>1030</ele>
        <time>2021-06-16T09:26:48Z</time>
      </trkpt>
      <trkpt lat="45.3734" lon="4.44919">
        <ele>1029.8</ele>
        <time>2021-06-16T09:26:51Z</time>
      </trkpt>
      <trkpt lat="45.3735" lon="4.44916">
        <ele>1029.4</ele>
        <time>2021-06-16T09:26:56Z</time>
      </trkpt>
      <trkpt lat="45.37359" lon="4.44913">
        <ele>1028.8</ele>
        <time>2021-06-16T09:27:01Z</time>
      </trkpt>
      <trkpt lat="45.37376" lon="4.44908">
        <ele>1028.2</ele>
        <time>2021-06-16T09:27:09Z</time>
      </trkpt>
      <trkpt lat="45.3739" lon="4.44905">
        <ele>1027.8</ele>
        <time>2021-06-16T09:27:15Z</time>
      </trkpt>
      <trkpt lat="45.37408" lon="4.44899">
        <ele>1027.6</ele>
        <time>2021-06-16T09:27:24Z</time>
      </trkpt>
      <trkpt lat="45.37416" lon="4.44894">
        <ele>1027.4</ele>
        <time>2021-06-16T09:27:28Z</time>
      </trkpt>
      <trkpt lat="45.37433" lon="4.44886">
        <ele>1027.4</ele>
        <time>2021-06-16T09:27:37Z</time>
      </trkpt>
      <trkpt lat="45.37452" lon="4.44874">
        <ele>1027.8</ele>
        <time>2021-06-16T09:27:47Z</time>
      </trkpt>
      <trkpt lat="45.37467" lon="4.4486">
        <ele>1027.8</ele>
        <time>2021-06-16T09:27:58Z</time>
      </trkpt>
      <trkpt lat="45.37471" lon="4.44856">
        <ele>1028</ele>
        <time>2021-06-16T09:28:01Z</time>
      </trkpt>
      <trkpt lat="45.37484" lon="4.44835">
        <ele>1029</ele>
        <time>2021-06-16T09:28:12Z</time>
      </trkpt>
      <trkpt lat="45.37491" lon="4.44815">
        <ele>1030</ele>
        <time>2021-06-16T09:28:19Z</time>
      </trkpt>
      <trkpt lat="45.37497" lon="4.44801">
        <ele>1031</ele>
        <time>2021-06-16T09:28:25Z</time>
      </trkpt>
      <trkpt lat="45.37506" lon="4.44775">
        <ele>1031</ele>
        <time>2021-06-16T09:28:34Z</time>
      </trkpt>
      <trkpt lat="45.37517" lon="4.4475">
        <ele>1031.4</ele>
        <time>2021-06-16T09:28:43Z</time>
      </trkpt>
      <trkpt lat="45.37525" lon="4.4474">
        <ele>1031.6</ele>
        <time>2021-06-16T09:28:49Z</time>
      </trkpt>
      <trkpt lat="45.37537" lon="4.44732">
        <ele>1032</ele>
        <time>2021-06-16T09:28:56Z</time>
      </trkpt>
      <trkpt lat="45.3755" lon="4.44724">
        <ele>1032.2</ele>
        <time>2021-06-16T09:29:03Z</time>
      </trkpt>
      <trkpt lat="45.37568" lon="4.44715">
        <ele>1032.6</ele>
        <time>2021-06-16T09:29:13Z</time>
      </trkpt>
      <trkpt lat="45.37586" lon="4.44705">
        <ele>1032.8</ele>
        <time>2021-06-16T09:29:23Z</time>
      </trkpt>
      <trkpt lat="45.3759" lon="4.44703">
        <ele>1033.2</ele>
        <time>2021-06-16T09:29:26Z</time>
      </trkpt>
      <trkpt lat="45.37609" lon="4.44694">
        <ele>1033.2</ele>
        <time>2021-06-16T09:29:35Z</time>
      </trkpt>
      <trkpt lat="45.3762" lon="4.44685">
        <ele>1032.8</ele>
        <time>2021-06-16T09:29:41Z</time>
      </trkpt>
      <trkpt lat="45.37634" lon="4.44673">
        <ele>1032</ele>
        <time>2021-06-16T09:29:50Z</time>
      </trkpt>
      <trkpt lat="45.37654" lon="4.44669">
        <ele>1031.6</ele>
        <time>2021-06-16T09:29:59Z</time>
      </trkpt>
      <trkpt lat="45.37672" lon="4.44677">
        <ele>1031.6</ele>
        <time>2021-06-16T09:30:07Z</time>
      </trkpt>
      <trkpt lat="45.37689" lon="4.44692">
        <ele>1032</ele>
        <time>2021-06-16T09:30:15Z</time>
      </trkpt>
      <trkpt lat="45.37702" lon="4.44706">
        <ele>1031.8</ele>
        <time>2021-06-16T09:30:21Z</time>
      </trkpt>
      <trkpt lat="45.37713" lon="4.44722">
        <ele>1031.2</ele>
        <time>2021-06-16T09:30:28Z</time>
      </trkpt>
      <trkpt lat="45.37716" lon="4.44733">
        <ele>1031.2</ele>
        <time>2021-06-16T09:30:32Z</time>
      </trkpt>
      <trkpt lat="45.37716" lon="4.4474">
        <ele>1031</ele>
        <time>2021-06-16T09:30:35Z</time>
      </trkpt>
      <trkpt lat="45.37715" lon="4.44747">
        <ele>1031.2</ele>
        <time>2021-06-16T09:30:40Z</time>
      </trkpt>
      <trkpt lat="45.37714" lon="4.44751">
        <ele>1031</ele>
        <time>2021-06-16T09:30:42Z</time>
      </trkpt>
      <trkpt lat="45.37714" lon="4.4476">
        <ele>1030.2</ele>
        <time>2021-06-16T09:30:46Z</time>
      </trkpt>
      <trkpt lat="45.37714" lon="4.44766">
        <ele>1029.8</ele>
        <time>2021-06-16T09:30:48Z</time>
      </trkpt>
      <trkpt lat="45.37719" lon="4.44779">
        <ele>1028.4</ele>
        <time>2021-06-16T09:30:54Z</time>
      </trkpt>
      <trkpt lat="45.37723" lon="4.44788">
        <ele>1027</ele>
        <time>2021-06-16T09:30:58Z</time>
      </trkpt>
      <trkpt lat="45.37729" lon="4.44789">
        <ele>1025.8</ele>
        <time>2021-06-16T09:31:04Z</time>
      </trkpt>
      <trkpt lat="45.37734" lon="4.44784">
        <ele>1024.6</ele>
        <time>2021-06-16T09:31:08Z</time>
      </trkpt>
      <trkpt lat="45.37738" lon="4.4478">
        <ele>1023.4</ele>
        <time>2021-06-16T09:31:11Z</time>
      </trkpt>
      <trkpt lat="45.37741" lon="4.44777">
        <ele>1023</ele>
        <time>2021-06-16T09:31:13Z</time>
      </trkpt>
      <trkpt lat="45.37742" lon="4.44777">
        <ele>1022.8</ele>
        <time>2021-06-16T09:31:14Z</time>
      </trkpt>
      <trkpt lat="45.37747" lon="4.44775">
        <ele>1022.2</ele>
        <time>2021-06-16T09:31:16Z</time>
      </trkpt>
      <trkpt lat="45.37752" lon="4.44772">
        <ele>1021.4</ele>
        <time>2021-06-16T09:31:19Z</time>
      </trkpt>
      <trkpt lat="45.37753" lon="4.44771">
        <ele>1021</ele>
        <time>2021-06-16T09:31:20Z</time>
      </trkpt>
      <trkpt lat="45.37757" lon="4.44767">
        <ele>1020.6</ele>
        <time>2021-06-16T09:31:23Z</time>
      </trkpt>
      <trkpt lat="45.37761" lon="4.44762">
        <ele>1020</ele>
        <time>2021-06-16T09:31:25Z</time>
      </trkpt>
      <trkpt lat="45.37763" lon="4.44761">
        <ele>1019.8</ele>
        <time>2021-06-16T09:31:26Z</time>
      </trkpt>
      <trkpt lat="45.37769" lon="4.44756">
        <ele>1018.8</ele>
        <time>2021-06-16T09:31:29Z</time>
      </trkpt>
      <trkpt lat="45.37771" lon="4.44754">
        <ele>1018.4</ele>
        <time>2021-06-16T09:31:30Z</time>
      </trkpt>
      <trkpt lat="45.37776" lon="4.44748">
        <ele>1017.6</ele>
        <time>2021-06-16T09:31:33Z</time>
      </trkpt>
      <trkpt lat="45.37781" lon="4.44743">
        <ele>1017</ele>
        <time>2021-06-16T09:31:36Z</time>
      </trkpt>
      <trkpt lat="45.37791" lon="4.44734">
        <ele>1016.4</ele>
        <time>2021-06-16T09:31:41Z</time>
      </trkpt>
      <trkpt lat="45.37806" lon="4.4472">
        <ele>1015.4</ele>
        <time>2021-06-16T09:31:50Z</time>
      </trkpt>
      <trkpt lat="45.3781" lon="4.44716">
        <ele>1015.2</ele>
        <time>2021-06-16T09:31:53Z</time>
      </trkpt>
      <trkpt lat="45.37815" lon="4.44709">
        <ele>1014.4</ele>
        <time>2021-06-16T09:31:57Z</time>
      </trkpt>
      <trkpt lat="45.37817" lon="4.44708">
        <ele>1014.2</ele>
        <time>2021-06-16T09:31:58Z</time>
      </trkpt>
      <trkpt lat="45.37823" lon="4.44702">
        <ele>1013</ele>
        <time>2021-06-16T09:32:02Z</time>
      </trkpt>
      <trkpt lat="45.3783" lon="4.44696">
        <ele>1011.8</ele>
        <time>2021-06-16T09:32:07Z</time>
      </trkpt>
      <trkpt lat="45.37836" lon="4.44689">
        <ele>1010.8</ele>
        <time>2021-06-16T09:32:11Z</time>
      </trkpt>
      <trkpt lat="45.37851" lon="4.44681">
        <ele>1009.6</ele>
        <time>2021-06-16T09:32:18Z</time>
      </trkpt>
      <trkpt lat="45.37855" lon="4.44679">
        <ele>1008.8</ele>
        <time>2021-06-16T09:32:20Z</time>
      </trkpt>
      <trkpt lat="45.37859" lon="4.44677">
        <ele>1008.4</ele>
        <time>2021-06-16T09:32:22Z</time>
      </trkpt>
      <trkpt lat="45.37875" lon="4.44666">
        <ele>1007.2</ele>
        <time>2021-06-16T09:32:29Z</time>
      </trkpt>
      <trkpt lat="45.37881" lon="4.44662">
        <ele>1006.6</ele>
        <time>2021-06-16T09:32:32Z</time>
      </trkpt>
      <trkpt lat="45.37882" lon="4.4466">
        <ele>1006.2</ele>
        <time>2021-06-16T09:32:33Z</time>
      </trkpt>
      <trkpt lat="45.37888" lon="4.44655">
        <ele>1005.6</ele>
        <time>2021-06-16T09:32:36Z</time>
      </trkpt>
      <trkpt lat="45.37894" lon="4.4465">
        <ele>1005.2</ele>
        <time>2021-06-16T09:32:39Z</time>
      </trkpt>
      <trkpt lat="45.37907" lon="4.4464">
        <ele>1004.2</ele>
        <time>2021-06-16T09:32:45Z</time>
      </trkpt>
      <trkpt lat="45.37909" lon="4.44639">
        <ele>1004</ele>
        <time>2021-06-16T09:32:46Z</time>
      </trkpt>
      <trkpt lat="45.37917" lon="4.44628">
        <ele>1002.8</ele>
        <time>2021-06-16T09:32:51Z</time>
      </trkpt>
      <trkpt lat="45.37926" lon="4.44618">
        <ele>1002</ele>
        <time>2021-06-16T09:32:57Z</time>
      </trkpt>
      <trkpt lat="45.37927" lon="4.44616">
        <ele>1001.8</ele>
        <time>2021-06-16T09:32:58Z</time>
      </trkpt>
      <trkpt lat="45.37936" lon="4.44604">
        <ele>1000.8</ele>
        <time>2021-06-16T09:33:04Z</time>
      </trkpt>
      <trkpt lat="45.37938" lon="4.44602">
        <ele>1000.6</ele>
        <time>2021-06-16T09:33:05Z</time>
      </trkpt>
      <trkpt lat="45.37943" lon="4.44595">
        <ele>999.6</ele>
        <time>2021-06-16T09:33:10Z</time>
      </trkpt>
      <trkpt lat="45.37947" lon="4.44586">
        <ele>998.4</ele>
        <time>2021-06-16T09:33:14Z</time>
      </trkpt>
      <trkpt lat="45.37952" lon="4.44578">
        <ele>997.4</ele>
        <time>2021-06-16T09:33:18Z</time>
      </trkpt>
      <trkpt lat="45.37965" lon="4.44558">
        <ele>996.4</ele>
        <time>2021-06-16T09:33:25Z</time>
      </trkpt>
      <trkpt lat="45.37972" lon="4.44553">
        <ele>995.2</ele>
        <time>2021-06-16T09:33:28Z</time>
      </trkpt>
      <trkpt lat="45.37977" lon="4.44548">
        <ele>994</ele>
        <time>2021-06-16T09:33:31Z</time>
      </trkpt>
      <trkpt lat="45.37981" lon="4.44545">
        <ele>993.4</ele>
        <time>2021-06-16T09:33:33Z</time>
      </trkpt>
      <trkpt lat="45.37986" lon="4.44541">
        <ele>993</ele>
        <time>2021-06-16T09:33:35Z</time>
      </trkpt>
      <trkpt lat="45.37988" lon="4.44539">
        <ele>992.8</ele>
        <time>2021-06-16T09:33:36Z</time>
      </trkpt>
      <trkpt lat="45.37992" lon="4.44536">
        <ele>992.4</ele>
        <time>2021-06-16T09:33:38Z</time>
      </trkpt>
      <trkpt lat="45.37994" lon="4.44534">
        <ele>992.2</ele>
        <time>2021-06-16T09:33:39Z</time>
      </trkpt>
      <trkpt lat="45.37996" lon="4.44532">
        <ele>991.8</ele>
        <time>2021-06-16T09:33:40Z</time>
      </trkpt>
      <trkpt lat="45.38002" lon="4.44523">
        <ele>990.8</ele>
        <time>2021-06-16T09:33:44Z</time>
      </trkpt>
      <trkpt lat="45.38005" lon="4.44519">
        <ele>990.4</ele>
        <time>2021-06-16T09:33:46Z</time>
      </trkpt>
      <trkpt lat="45.38009" lon="4.44511">
        <ele>989.6</ele>
        <time>2021-06-16T09:33:49Z</time>
      </trkpt>
      <trkpt lat="45.3801" lon="4.44508">
        <ele>989.6</ele>
        <time>2021-06-16T09:33:50Z</time>
      </trkpt>
      <trkpt lat="45.38017" lon="4.44499">
        <ele>989</ele>
        <time>2021-06-16T09:33:54Z</time>
      </trkpt>
      <trkpt lat="45.38023" lon="4.44486">
        <ele>988.6</ele>
        <time>2021-06-16T09:33:58Z</time>
      </trkpt>
      <trkpt lat="45.38035" lon="4.44463">
        <ele>987.6</ele>
        <time>2021-06-16T09:34:06Z</time>
      </trkpt>
      <trkpt lat="45.38046" lon="4.44443">
        <ele>987.4</ele>
        <time>2021-06-16T09:34:14Z</time>
      </trkpt>
      <trkpt lat="45.38059" lon="4.44423">
        <ele>986.8</ele>
        <time>2021-06-16T09:34:22Z</time>
      </trkpt>
      <trkpt lat="45.38063" lon="4.4442">
        <ele>986.6</ele>
        <time>2021-06-16T09:34:24Z</time>
      </trkpt>
      <trkpt lat="45.38078" lon="4.44402">
        <ele>985.6</ele>
        <time>2021-06-16T09:34:32Z</time>
      </trkpt>
      <trkpt lat="45.38084" lon="4.44397">
        <ele>985.4</ele>
        <time>2021-06-16T09:34:35Z</time>
      </trkpt>
      <trkpt lat="45.38099" lon="4.44383">
        <ele>984.8</ele>
        <time>2021-06-16T09:34:42Z</time>
      </trkpt>
      <trkpt lat="45.38106" lon="4.44377">
        <ele>984.4</ele>
        <time>2021-06-16T09:34:45Z</time>
      </trkpt>
      <trkpt lat="45.38109" lon="4.44375">
        <ele>984</ele>
        <time>2021-06-16T09:34:46Z</time>
      </trkpt>
      <trkpt lat="45.38119" lon="4.44361">
        <ele>983.2</ele>
        <time>2021-06-16T09:34:51Z</time>
      </trkpt>
      <trkpt lat="45.38134" lon="4.44345">
        <ele>982.2</ele>
        <time>2021-06-16T09:34:59Z</time>
      </trkpt>
      <trkpt lat="45.38136" lon="4.44343">
        <ele>982</ele>
        <time>2021-06-16T09:35:00Z</time>
      </trkpt>
      <trkpt lat="45.38147" lon="4.44332">
        <ele>981</ele>
        <time>2021-06-16T09:35:06Z</time>
      </trkpt>
      <trkpt lat="45.3815" lon="4.44328">
        <ele>980.6</ele>
        <time>2021-06-16T09:35:08Z</time>
      </trkpt>
      <trkpt lat="45.38158" lon="4.44321">
        <ele>979.8</ele>
        <time>2021-06-16T09:35:12Z</time>
      </trkpt>
      <trkpt lat="45.38165" lon="4.44315">
        <ele>978.6</ele>
        <time>2021-06-16T09:35:16Z</time>
      </trkpt>
      <trkpt lat="45.38172" lon="4.44308">
        <ele>977.8</ele>
        <time>2021-06-16T09:35:20Z</time>
      </trkpt>
      <trkpt lat="45.38175" lon="4.44303">
        <ele>977.6</ele>
        <time>2021-06-16T09:35:22Z</time>
      </trkpt>
      <trkpt lat="45.38184" lon="4.44289">
        <ele>976.2</ele>
        <time>2021-06-16T09:35:28Z</time>
      </trkpt>
      <trkpt lat="45.3819" lon="4.44274">
        <ele>975.2</ele>
        <time>2021-06-16T09:35:34Z</time>
      </trkpt>
      <trkpt lat="45.38192" lon="4.44269">
        <ele>974.6</ele>
        <time>2021-06-16T09:35:36Z</time>
      </trkpt>
      <trkpt lat="45.38195" lon="4.44266">
        <ele>974</ele>
        <time>2021-06-16T09:35:38Z</time>
      </trkpt>
      <trkpt lat="45.382" lon="4.44256">
        <ele>972.6</ele>
        <time>2021-06-16T09:35:44Z</time>
      </trkpt>
      <trkpt lat="45.38201" lon="4.44254">
        <ele>972.6</ele>
        <time>2021-06-16T09:35:45Z</time>
      </trkpt>
      <trkpt lat="45.38203" lon="4.44247">
        <ele>971.6</ele>
        <time>2021-06-16T09:35:49Z</time>
      </trkpt>
      <trkpt lat="45.38206" lon="4.44234">
        <ele>971</ele>
        <time>2021-06-16T09:35:54Z</time>
      </trkpt>
      <trkpt lat="45.38206" lon="4.44231">
        <ele>970.6</ele>
        <time>2021-06-16T09:35:55Z</time>
      </trkpt>
      <trkpt lat="45.38207" lon="4.44219">
        <ele>969.4</ele>
        <time>2021-06-16T09:35:58Z</time>
      </trkpt>
      <trkpt lat="45.38208" lon="4.44205">
        <ele>968.6</ele>
        <time>2021-06-16T09:36:01Z</time>
      </trkpt>
      <trkpt lat="45.38209" lon="4.44202">
        <ele>968.4</ele>
        <time>2021-06-16T09:36:02Z</time>
      </trkpt>
      <trkpt lat="45.3821" lon="4.44186">
        <ele>967.2</ele>
        <time>2021-06-16T09:36:07Z</time>
      </trkpt>
      <trkpt lat="45.38216" lon="4.44164">
        <ele>966</ele>
        <time>2021-06-16T09:36:13Z</time>
      </trkpt>
      <trkpt lat="45.38226" lon="4.44139">
        <ele>965</ele>
        <time>2021-06-16T09:36:20Z</time>
      </trkpt>
      <trkpt lat="45.38227" lon="4.44136">
        <ele>964.8</ele>
        <time>2021-06-16T09:36:21Z</time>
      </trkpt>
      <trkpt lat="45.38238" lon="4.44116">
        <ele>964</ele>
        <time>2021-06-16T09:36:29Z</time>
      </trkpt>
      <trkpt lat="45.38243" lon="4.4411">
        <ele>963.8</ele>
        <time>2021-06-16T09:36:32Z</time>
      </trkpt>
      <trkpt lat="45.38251" lon="4.44098">
        <ele>962.6</ele>
        <time>2021-06-16T09:36:37Z</time>
      </trkpt>
      <trkpt lat="45.38261" lon="4.44083">
        <ele>961.6</ele>
        <time>2021-06-16T09:36:43Z</time>
      </trkpt>
      <trkpt lat="45.38269" lon="4.44075">
        <ele>960.6</ele>
        <time>2021-06-16T09:36:48Z</time>
      </trkpt>
      <trkpt lat="45.38269" lon="4.44072">
        <ele>960.4</ele>
        <time>2021-06-16T09:36:49Z</time>
      </trkpt>
    </trkseg>
  </trk>
</gpx>